<?xml version='1.0' encoding='UTF-8'?><gpx version="1.1" creator="JPX - https://github.com/jenetics/jpx" xmlns="http://www.topografix.com/GPX/1/1"><trk><trkseg><trkpt lat="45.7179051" lon="9.8766881"><ele>345.0</ele><time>2026-04-05T07:17:55.645Z</time></trkpt><trkpt lat="45.7180059" lon="9.8768205"><ele>345.0</ele><time>2026-04-05T07:17:59.545Z</time></trkpt><trkpt lat="45.7179508" lon="9.876749"><ele>345.0</ele><time>2026-04-05T07:19:29.515Z</time></trkpt><trkpt lat="45.717908" lon="9.8766765"><ele>345.0</ele><time>2026-04-05T07:19:30.521Z</time></trkpt><trkpt lat="45.7178387" lon="9.8765381"><ele>345.0</ele><time>2026-04-05T07:19:31.523Z</time></trkpt><trkpt lat="45.7178782" lon="9.8766254"><ele>345.0</ele><time>2026-04-05T07:19:37.522Z</time></trkpt><trkpt lat="45.7179363" lon="9.8767023"><ele>345.0</ele><time>2026-04-05T07:19:41.526Z</time></trkpt><trkpt lat="45.7179354" lon="9.8768216"><ele>345.0</ele><time>2026-04-05T07:20:24.035Z</time></trkpt><trkpt lat="45.7179312" lon="9.8769459"><ele>345.0</ele><time>2026-04-05T07:20:26.961Z</time></trkpt><trkpt lat="45.7179308" lon="9.8770775"><ele>345.0</ele><time>2026-04-05T07:20:29.995Z</time></trkpt><trkpt lat="45.7179212" lon="9.8771813"><ele>345.0</ele><time>2026-04-05T07:20:32.031Z</time></trkpt><trkpt lat="45.7179056" lon="9.8772766"><ele>345.5</ele><time>2026-04-05T07:20:33.969Z</time></trkpt><trkpt lat="45.7178744" lon="9.8773618"><ele>346.0</ele><time>2026-04-05T07:20:35.961Z</time></trkpt><trkpt lat="45.7178183" lon="9.8774695"><ele>346.5</ele><time>2026-04-05T07:20:38.966Z</time></trkpt><trkpt lat="45.7177453" lon="9.8775717"><ele>347.0</ele><time>2026-04-05T07:20:40.968Z</time></trkpt><trkpt lat="45.7176651" lon="9.8776894"><ele>347.5</ele><time>2026-04-05T07:20:43.033Z</time></trkpt><trkpt lat="45.7176261" lon="9.8777608"><ele>348.0</ele><time>2026-04-05T07:20:44.037Z</time></trkpt><trkpt lat="45.7175838" lon="9.8778363"><ele>345.1666666666667</ele><time>2026-04-05T07:20:44.955Z</time></trkpt><trkpt lat="45.717541" lon="9.8779176"><ele>342.3333333333333</ele><time>2026-04-05T07:20:45.956Z</time></trkpt><trkpt lat="45.7174975" lon="9.8779972"><ele>339.5</ele><time>2026-04-05T07:20:46.952Z</time></trkpt><trkpt lat="45.7174533" lon="9.8780798"><ele>336.66666666666663</ele><time>2026-04-05T07:20:47.953Z</time></trkpt><trkpt lat="45.7174055" lon="9.8781604"><ele>333.8333333333333</ele><time>2026-04-05T07:20:48.95Z</time></trkpt><trkpt lat="45.7173567" lon="9.8782554"><ele>331.0</ele><time>2026-04-05T07:20:49.953Z</time></trkpt><trkpt lat="45.7173081" lon="9.8783541"><ele>332.0</ele><time>2026-04-05T07:20:50.956Z</time></trkpt><trkpt lat="45.7172623" lon="9.8784616"><ele>333.0</ele><time>2026-04-05T07:20:51.957Z</time></trkpt><trkpt lat="45.717218" lon="9.8785766"><ele>334.0</ele><time>2026-04-05T07:20:53.018Z</time></trkpt><trkpt lat="45.717176" lon="9.8786893"><ele>335.0</ele><time>2026-04-05T07:20:53.954Z</time></trkpt><trkpt lat="45.7171325" lon="9.8788129"><ele>336.0</ele><time>2026-04-05T07:20:54.96Z</time></trkpt><trkpt lat="45.7170928" lon="9.8789351"><ele>336.0</ele><time>2026-04-05T07:20:55.952Z</time></trkpt><trkpt lat="45.7170507" lon="9.8790567"><ele>336.0</ele><time>2026-04-05T07:20:56.94Z</time></trkpt><trkpt lat="45.7170064" lon="9.8791871"><ele>336.0</ele><time>2026-04-05T07:20:57.954Z</time></trkpt><trkpt lat="45.7169619" lon="9.8793073"><ele>336.0</ele><time>2026-04-05T07:20:59.032Z</time></trkpt><trkpt lat="45.7169196" lon="9.8794133"><ele>336.0</ele><time>2026-04-05T07:20:59.963Z</time></trkpt><trkpt lat="45.7168736" lon="9.8795121"><ele>333.0</ele><time>2026-04-05T07:21:00.974Z</time></trkpt><trkpt lat="45.7168247" lon="9.8796132"><ele>330.0</ele><time>2026-04-05T07:21:01.984Z</time></trkpt><trkpt lat="45.7167761" lon="9.8797264"><ele>327.0</ele><time>2026-04-05T07:21:02.982Z</time></trkpt><trkpt lat="45.7167421" lon="9.8798348"><ele>324.0</ele><time>2026-04-05T07:21:03.965Z</time></trkpt><trkpt lat="45.7167101" lon="9.8799462"><ele>321.0</ele><time>2026-04-05T07:21:05.038Z</time></trkpt><trkpt lat="45.7166894" lon="9.8800344"><ele>318.0</ele><time>2026-04-05T07:21:05.972Z</time></trkpt><trkpt lat="45.7166628" lon="9.8801172"><ele>318.0</ele><time>2026-04-05T07:21:07.029Z</time></trkpt><trkpt lat="45.7166322" lon="9.8802606"><ele>318.0</ele><time>2026-04-05T07:21:08.951Z</time></trkpt><trkpt lat="45.7166426" lon="9.8803922"><ele>318.0</ele><time>2026-04-05T07:21:10.953Z</time></trkpt><trkpt lat="45.7166967" lon="9.8805036"><ele>318.0</ele><time>2026-04-05T07:21:12.954Z</time></trkpt><trkpt lat="45.7167111" lon="9.8806586"><ele>318.0</ele><time>2026-04-05T07:21:14.948Z</time></trkpt><trkpt lat="45.716738" lon="9.8808144"><ele>318.0</ele><time>2026-04-05T07:21:16.953Z</time></trkpt><trkpt lat="45.7167469" lon="9.8809038"><ele>318.0</ele><time>2026-04-05T07:21:17.94Z</time></trkpt><trkpt lat="45.7167528" lon="9.8809969"><ele>318.0</ele><time>2026-04-05T07:21:18.95Z</time></trkpt><trkpt lat="45.7167606" lon="9.8810898"><ele>318.0</ele><time>2026-04-05T07:21:19.951Z</time></trkpt><trkpt lat="45.7167764" lon="9.8811802"><ele>318.0</ele><time>2026-04-05T07:21:20.952Z</time></trkpt><trkpt lat="45.7167916" lon="9.8812713"><ele>318.0</ele><time>2026-04-05T07:21:21.942Z</time></trkpt><trkpt lat="45.7168011" lon="9.8813649"><ele>318.0</ele><time>2026-04-05T07:21:22.955Z</time></trkpt><trkpt lat="45.7168161" lon="9.8814583"><ele>317.5</ele><time>2026-04-05T07:21:23.97Z</time></trkpt><trkpt lat="45.716833" lon="9.8816343"><ele>317.0</ele><time>2026-04-05T07:21:25.951Z</time></trkpt><trkpt lat="45.716837" lon="9.8817285"><ele>316.5</ele><time>2026-04-05T07:21:26.954Z</time></trkpt><trkpt lat="45.7168426" lon="9.8818221"><ele>316.0</ele><time>2026-04-05T07:21:27.948Z</time></trkpt><trkpt lat="45.716846" lon="9.8819141"><ele>315.5</ele><time>2026-04-05T07:21:28.947Z</time></trkpt><trkpt lat="45.7168582" lon="9.8820141"><ele>315.0</ele><time>2026-04-05T07:21:29.949Z</time></trkpt><trkpt lat="45.716862" lon="9.8821126"><ele>314.2</ele><time>2026-04-05T07:21:30.958Z</time></trkpt><trkpt lat="45.7168793" lon="9.8822844"><ele>313.4</ele><time>2026-04-05T07:21:32.943Z</time></trkpt><trkpt lat="45.71689" lon="9.8823753"><ele>312.6</ele><time>2026-04-05T07:21:33.955Z</time></trkpt><trkpt lat="45.7169046" lon="9.8824663"><ele>311.8</ele><time>2026-04-05T07:21:35.032Z</time></trkpt><trkpt lat="45.7169526" lon="9.8826342"><ele>311.0</ele><time>2026-04-05T07:21:36.966Z</time></trkpt><trkpt lat="45.7170097" lon="9.8827961"><ele>314.25</ele><time>2026-04-05T07:21:39.02Z</time></trkpt><trkpt lat="45.717067" lon="9.8829493"><ele>317.5</ele><time>2026-04-05T07:21:40.963Z</time></trkpt><trkpt lat="45.7171327" lon="9.8830812"><ele>320.75</ele><time>2026-04-05T07:21:43.03Z</time></trkpt><trkpt lat="45.7171938" lon="9.8832103"><ele>324.0</ele><time>2026-04-05T07:21:44.953Z</time></trkpt><trkpt lat="45.7172487" lon="9.8833441"><ele>322.0</ele><time>2026-04-05T07:21:46.945Z</time></trkpt><trkpt lat="45.7172933" lon="9.8834755"><ele>320.0</ele><time>2026-04-05T07:21:48.95Z</time></trkpt><trkpt lat="45.717327" lon="9.8836118"><ele>318.0</ele><time>2026-04-05T07:21:50.94Z</time></trkpt><trkpt lat="45.7173408" lon="9.8837399"><ele>316.0</ele><time>2026-04-05T07:21:53.044Z</time></trkpt><trkpt lat="45.717351" lon="9.8838909"><ele>314.0</ele><time>2026-04-05T07:21:55.039Z</time></trkpt><trkpt lat="45.7173547" lon="9.8840556"><ele>314.0</ele><time>2026-04-05T07:21:56.962Z</time></trkpt><trkpt lat="45.7173584" lon="9.8842153"><ele>314.0</ele><time>2026-04-05T07:21:59.032Z</time></trkpt><trkpt lat="45.7173773" lon="9.8843767"><ele>314.0</ele><time>2026-04-05T07:22:00.964Z</time></trkpt><trkpt lat="45.7174185" lon="9.8845354"><ele>314.0</ele><time>2026-04-05T07:22:02.956Z</time></trkpt><trkpt lat="45.7174767" lon="9.8846591"><ele>314.0</ele><time>2026-04-05T07:22:04.96Z</time></trkpt><trkpt lat="45.717574" lon="9.8847664"><ele>314.5</ele><time>2026-04-05T07:22:06.97Z</time></trkpt><trkpt lat="45.7176662" lon="9.8848568"><ele>315.0</ele><time>2026-04-05T07:22:08.96Z</time></trkpt><trkpt lat="45.7177601" lon="9.8849515"><ele>315.5</ele><time>2026-04-05T07:22:10.967Z</time></trkpt><trkpt lat="45.7178543" lon="9.8850531"><ele>316.0</ele><time>2026-04-05T07:22:12.959Z</time></trkpt><trkpt lat="45.7179404" lon="9.8851619"><ele>314.0</ele><time>2026-04-05T07:22:14.951Z</time></trkpt><trkpt lat="45.718016" lon="9.88529"><ele>312.0</ele><time>2026-04-05T07:22:16.965Z</time></trkpt><trkpt lat="45.7180875" lon="9.8854243"><ele>310.0</ele><time>2026-04-05T07:22:18.951Z</time></trkpt><trkpt lat="45.7181507" lon="9.885563"><ele>308.0</ele><time>2026-04-05T07:22:20.96Z</time></trkpt><trkpt lat="45.7182216" lon="9.8857042"><ele>308.0</ele><time>2026-04-05T07:22:22.954Z</time></trkpt><trkpt lat="45.7182919" lon="9.8858461"><ele>308.0</ele><time>2026-04-05T07:22:25.031Z</time></trkpt><trkpt lat="45.7183584" lon="9.8859844"><ele>308.0</ele><time>2026-04-05T07:22:26.963Z</time></trkpt><trkpt lat="45.7183906" lon="9.8860627"><ele>308.0</ele><time>2026-04-05T07:22:27.974Z</time></trkpt><trkpt lat="45.7184138" lon="9.8861469"><ele>308.0</ele><time>2026-04-05T07:22:28.965Z</time></trkpt><trkpt lat="45.7184504" lon="9.8863162"><ele>307.57142857142856</ele><time>2026-04-05T07:22:30.96Z</time></trkpt><trkpt lat="45.7184627" lon="9.8864064"><ele>307.1428571428571</ele><time>2026-04-05T07:22:32.026Z</time></trkpt><trkpt lat="45.7184715" lon="9.8865042"><ele>306.7142857142857</ele><time>2026-04-05T07:22:33.029Z</time></trkpt><trkpt lat="45.7184845" lon="9.8866046"><ele>306.2857142857143</ele><time>2026-04-05T07:22:34.033Z</time></trkpt><trkpt lat="45.7185003" lon="9.8867068"><ele>305.85714285714283</ele><time>2026-04-05T07:22:35.034Z</time></trkpt><trkpt lat="45.718514" lon="9.886814"><ele>305.42857142857144</ele><time>2026-04-05T07:22:35.96Z</time></trkpt><trkpt lat="45.7185244" lon="9.8869141"><ele>305.0</ele><time>2026-04-05T07:22:36.962Z</time></trkpt><trkpt lat="45.7185293" lon="9.8870227"><ele>303.0</ele><time>2026-04-05T07:22:37.982Z</time></trkpt><trkpt lat="45.7185192" lon="9.8871288"><ele>301.0</ele><time>2026-04-05T07:22:38.97Z</time></trkpt><trkpt lat="45.7184975" lon="9.8872335"><ele>299.0</ele><time>2026-04-05T07:22:40.066Z</time></trkpt><trkpt lat="45.7184357" lon="9.887448"><ele>297.0</ele><time>2026-04-05T07:22:41.957Z</time></trkpt><trkpt lat="45.7183983" lon="9.8875579"><ele>295.0</ele><time>2026-04-05T07:22:42.991Z</time></trkpt><trkpt lat="45.718367" lon="9.8876708"><ele>295.0</ele><time>2026-04-05T07:22:44.03Z</time></trkpt><trkpt lat="45.7183602" lon="9.8877996"><ele>295.0</ele><time>2026-04-05T07:22:45.033Z</time></trkpt><trkpt lat="45.7183856" lon="9.8879287"><ele>295.0</ele><time>2026-04-05T07:22:45.954Z</time></trkpt><trkpt lat="45.7184251" lon="9.8880518"><ele>295.0</ele><time>2026-04-05T07:22:46.955Z</time></trkpt><trkpt lat="45.7184775" lon="9.8881757"><ele>295.0</ele><time>2026-04-05T07:22:48.063Z</time></trkpt><trkpt lat="45.7185695" lon="9.8884338"><ele>295.0</ele><time>2026-04-05T07:22:49.954Z</time></trkpt><trkpt lat="45.7186133" lon="9.8885573"><ele>295.0</ele><time>2026-04-05T07:22:50.955Z</time></trkpt><trkpt lat="45.7186714" lon="9.888664"><ele>295.0</ele><time>2026-04-05T07:22:51.95Z</time></trkpt><trkpt lat="45.7187417" lon="9.888753"><ele>295.0</ele><time>2026-04-05T07:22:52.949Z</time></trkpt><trkpt lat="45.7188169" lon="9.8888212"><ele>295.0</ele><time>2026-04-05T07:22:53.953Z</time></trkpt><trkpt lat="45.7189034" lon="9.8888818"><ele>295.0</ele><time>2026-04-05T07:22:55.032Z</time></trkpt><trkpt lat="45.7189911" lon="9.888926"><ele>295.0</ele><time>2026-04-05T07:22:55.974Z</time></trkpt><trkpt lat="45.7190724" lon="9.8889547"><ele>295.0</ele><time>2026-04-05T07:22:56.957Z</time></trkpt><trkpt lat="45.7191429" lon="9.8890049"><ele>295.0</ele><time>2026-04-05T07:22:57.956Z</time></trkpt><trkpt lat="45.7191721" lon="9.8890865"><ele>295.0</ele><time>2026-04-05T07:22:58.963Z</time></trkpt><trkpt lat="45.7191483" lon="9.8891903"><ele>295.0</ele><time>2026-04-05T07:22:59.961Z</time></trkpt><trkpt lat="45.7190821" lon="9.8892717"><ele>295.0</ele><time>2026-04-05T07:23:00.957Z</time></trkpt><trkpt lat="45.7189854" lon="9.8892762"><ele>295.0</ele><time>2026-04-05T07:23:02.957Z</time></trkpt><trkpt lat="45.7188923" lon="9.8892365"><ele>295.0</ele><time>2026-04-05T07:23:05.96Z</time></trkpt><trkpt lat="45.7187924" lon="9.889281"><ele>295.0</ele><time>2026-04-05T07:23:07.967Z</time></trkpt><trkpt lat="45.7187184" lon="9.8893968"><ele>295.0</ele><time>2026-04-05T07:23:10.031Z</time></trkpt><trkpt lat="45.7186898" lon="9.8895497"><ele>294.4</ele><time>2026-04-05T07:23:11.969Z</time></trkpt><trkpt lat="45.7186645" lon="9.8896857"><ele>293.8</ele><time>2026-04-05T07:23:14.037Z</time></trkpt><trkpt lat="45.7185985" lon="9.8898028"><ele>293.2</ele><time>2026-04-05T07:23:15.956Z</time></trkpt><trkpt lat="45.718514" lon="9.8899086"><ele>292.6</ele><time>2026-04-05T07:23:18.067Z</time></trkpt><trkpt lat="45.7184416" lon="9.8900227"><ele>292.0</ele><time>2026-04-05T07:23:20.03Z</time></trkpt><trkpt lat="45.718364" lon="9.890109"><ele>291.66666666666663</ele><time>2026-04-05T07:23:22.033Z</time></trkpt><trkpt lat="45.7182808" lon="9.8901196"><ele>291.3333333333333</ele><time>2026-04-05T07:23:24.027Z</time></trkpt><trkpt lat="45.7182263" lon="9.8899972"><ele>291.0</ele><time>2026-04-05T07:23:26.962Z</time></trkpt><trkpt lat="45.7181752" lon="9.8899116"><ele>290.6666666666667</ele><time>2026-04-05T07:23:29.959Z</time></trkpt><trkpt lat="45.7180971" lon="9.8898521"><ele>290.33333333333337</ele><time>2026-04-05T07:23:31.967Z</time></trkpt><trkpt lat="45.7180127" lon="9.8898013"><ele>290.0</ele><time>2026-04-05T07:23:33.967Z</time></trkpt><trkpt lat="45.717929" lon="9.8897386"><ele>289.5</ele><time>2026-04-05T07:23:35.965Z</time></trkpt><trkpt lat="45.7178484" lon="9.8897065"><ele>289.0</ele><time>2026-04-05T07:23:37.97Z</time></trkpt><trkpt lat="45.7177761" lon="9.8896652"><ele>288.5</ele><time>2026-04-05T07:23:39.968Z</time></trkpt><trkpt lat="45.7176871" lon="9.8896108"><ele>288.0</ele><time>2026-04-05T07:23:41.966Z</time></trkpt><trkpt lat="45.717606" lon="9.8895708"><ele>287.5</ele><time>2026-04-05T07:23:43.956Z</time></trkpt><trkpt lat="45.7175247" lon="9.8895417"><ele>287.0</ele><time>2026-04-05T07:23:45.956Z</time></trkpt><trkpt lat="45.7174484" lon="9.8895062"><ele>287.0</ele><time>2026-04-05T07:23:47.955Z</time></trkpt><trkpt lat="45.7173656" lon="9.8894578"><ele>287.0</ele><time>2026-04-05T07:23:49.951Z</time></trkpt><trkpt lat="45.7172868" lon="9.8893895"><ele>287.0</ele><time>2026-04-05T07:23:51.955Z</time></trkpt><trkpt lat="45.7172131" lon="9.8893178"><ele>287.0</ele><time>2026-04-05T07:23:53.954Z</time></trkpt><trkpt lat="45.7171429" lon="9.8892466"><ele>287.0</ele><time>2026-04-05T07:23:55.957Z</time></trkpt><trkpt lat="45.7170787" lon="9.889158"><ele>287.0</ele><time>2026-04-05T07:23:57.95Z</time></trkpt><trkpt lat="45.7170061" lon="9.8890559"><ele>286.8</ele><time>2026-04-05T07:23:59.954Z</time></trkpt><trkpt lat="45.7169326" lon="9.8889488"><ele>286.6</ele><time>2026-04-05T07:24:01.955Z</time></trkpt><trkpt lat="45.7168608" lon="9.8888492"><ele>286.40000000000003</ele><time>2026-04-05T07:24:03.984Z</time></trkpt><trkpt lat="45.7167717" lon="9.8887723"><ele>286.2</ele><time>2026-04-05T07:24:05.951Z</time></trkpt><trkpt lat="45.7166783" lon="9.8887073"><ele>286.0</ele><time>2026-04-05T07:24:07.96Z</time></trkpt><trkpt lat="45.7165889" lon="9.8886467"><ele>286.25</ele><time>2026-04-05T07:24:10.036Z</time></trkpt><trkpt lat="45.71649" lon="9.8885946"><ele>286.5</ele><time>2026-04-05T07:24:12.036Z</time></trkpt><trkpt lat="45.7163817" lon="9.8885438"><ele>286.75</ele><time>2026-04-05T07:24:14.033Z</time></trkpt><trkpt lat="45.7162702" lon="9.8884794"><ele>287.0</ele><time>2026-04-05T07:24:15.971Z</time></trkpt><trkpt lat="45.7161676" lon="9.8884076"><ele>287.0</ele><time>2026-04-05T07:24:18.044Z</time></trkpt><trkpt lat="45.7160712" lon="9.8883349"><ele>287.0</ele><time>2026-04-05T07:24:20.04Z</time></trkpt><trkpt lat="45.7159802" lon="9.8882499"><ele>287.0</ele><time>2026-04-05T07:24:21.968Z</time></trkpt><trkpt lat="45.7158984" lon="9.8881674"><ele>287.0</ele><time>2026-04-05T07:24:23.968Z</time></trkpt><trkpt lat="45.715822" lon="9.8880764"><ele>287.0</ele><time>2026-04-05T07:24:25.969Z</time></trkpt><trkpt lat="45.7157406" lon="9.8879867"><ele>286.8</ele><time>2026-04-05T07:24:28.072Z</time></trkpt><trkpt lat="45.7156624" lon="9.8878967"><ele>286.6</ele><time>2026-04-05T07:24:30.015Z</time></trkpt><trkpt lat="45.7155999" lon="9.8878081"><ele>286.40000000000003</ele><time>2026-04-05T07:24:31.958Z</time></trkpt><trkpt lat="45.7155391" lon="9.8877058"><ele>286.2</ele><time>2026-04-05T07:24:33.966Z</time></trkpt><trkpt lat="45.7154838" lon="9.8876035"><ele>286.0</ele><time>2026-04-05T07:24:36.054Z</time></trkpt><trkpt lat="45.7154276" lon="9.8874878"><ele>285.8</ele><time>2026-04-05T07:24:37.964Z</time></trkpt><trkpt lat="45.7153713" lon="9.8873863"><ele>285.6</ele><time>2026-04-05T07:24:39.96Z</time></trkpt><trkpt lat="45.7153036" lon="9.8872945"><ele>285.4</ele><time>2026-04-05T07:24:41.965Z</time></trkpt><trkpt lat="45.7152285" lon="9.8872046"><ele>285.2</ele><time>2026-04-05T07:24:43.962Z</time></trkpt><trkpt lat="45.7151475" lon="9.8871149"><ele>285.0</ele><time>2026-04-05T07:24:45.953Z</time></trkpt><trkpt lat="45.7150702" lon="9.8870371"><ele>285.0</ele><time>2026-04-05T07:24:47.939Z</time></trkpt><trkpt lat="45.7149952" lon="9.8869586"><ele>285.0</ele><time>2026-04-05T07:24:49.953Z</time></trkpt><trkpt lat="45.7149209" lon="9.8868952"><ele>285.0</ele><time>2026-04-05T07:24:51.954Z</time></trkpt><trkpt lat="45.7148495" lon="9.8868425"><ele>285.0</ele><time>2026-04-05T07:24:53.971Z</time></trkpt><trkpt lat="45.7147825" lon="9.8867959"><ele>285.0</ele><time>2026-04-05T07:24:55.954Z</time></trkpt><trkpt lat="45.7146856" lon="9.886772"><ele>285.0</ele><time>2026-04-05T07:24:57.95Z</time></trkpt><trkpt lat="45.7145919" lon="9.8867224"><ele>284.8</ele><time>2026-04-05T07:24:59.954Z</time></trkpt><trkpt lat="45.7145025" lon="9.8866263"><ele>284.6</ele><time>2026-04-05T07:25:02.034Z</time></trkpt><trkpt lat="45.7144185" lon="9.8865248"><ele>284.4</ele><time>2026-04-05T07:25:04.03Z</time></trkpt><trkpt lat="45.7143452" lon="9.8864195"><ele>284.2</ele><time>2026-04-05T07:25:05.966Z</time></trkpt><trkpt lat="45.7142816" lon="9.8863087"><ele>284.0</ele><time>2026-04-05T07:25:07.964Z</time></trkpt><trkpt lat="45.7142349" lon="9.8861931"><ele>284.59999999999997</ele><time>2026-04-05T07:25:09.987Z</time></trkpt><trkpt lat="45.7141784" lon="9.8860838"><ele>285.2</ele><time>2026-04-05T07:25:12.039Z</time></trkpt><trkpt lat="45.7141312" lon="9.8859875"><ele>285.79999999999995</ele><time>2026-04-05T07:25:13.958Z</time></trkpt><trkpt lat="45.7140831" lon="9.8858772"><ele>286.4</ele><time>2026-04-05T07:25:15.958Z</time></trkpt><trkpt lat="45.713994" lon="9.8857139"><ele>287.0</ele><time>2026-04-05T07:25:19.03Z</time></trkpt><trkpt lat="45.7139363" lon="9.885593"><ele>287.0</ele><time>2026-04-05T07:25:20.949Z</time></trkpt><trkpt lat="45.7138861" lon="9.8854624"><ele>287.0</ele><time>2026-04-05T07:25:22.949Z</time></trkpt><trkpt lat="45.7138543" lon="9.8853446"><ele>287.0</ele><time>2026-04-05T07:25:24.961Z</time></trkpt><trkpt lat="45.7138104" lon="9.8852103"><ele>287.0</ele><time>2026-04-05T07:25:26.948Z</time></trkpt><trkpt lat="45.7137548" lon="9.8850754"><ele>287.0</ele><time>2026-04-05T07:25:28.962Z</time></trkpt><trkpt lat="45.7137065" lon="9.8849222"><ele>286.6666666666667</ele><time>2026-04-05T07:25:30.969Z</time></trkpt><trkpt lat="45.7136806" lon="9.8848373"><ele>286.33333333333337</ele><time>2026-04-05T07:25:31.968Z</time></trkpt><trkpt lat="45.7136616" lon="9.8847463"><ele>286.0</ele><time>2026-04-05T07:25:32.97Z</time></trkpt><trkpt lat="45.7136439" lon="9.8846456"><ele>285.6666666666667</ele><time>2026-04-05T07:25:33.951Z</time></trkpt><trkpt lat="45.7136166" lon="9.8845294"><ele>285.3333333333333</ele><time>2026-04-05T07:25:34.96Z</time></trkpt><trkpt lat="45.7135761" lon="9.8844121"><ele>285.0</ele><time>2026-04-05T07:25:35.963Z</time></trkpt><trkpt lat="45.7135385" lon="9.884305"><ele>285.6</ele><time>2026-04-05T07:25:36.971Z</time></trkpt><trkpt lat="45.7134959" lon="9.8842194"><ele>286.2</ele><time>2026-04-05T07:25:37.96Z</time></trkpt><trkpt lat="45.7134363" lon="9.8840947"><ele>286.8</ele><time>2026-04-05T07:25:39.951Z</time></trkpt><trkpt lat="45.7133684" lon="9.8839781"><ele>287.4</ele><time>2026-04-05T07:25:41.969Z</time></trkpt><trkpt lat="45.7132827" lon="9.88387"><ele>288.0</ele><time>2026-04-05T07:25:43.966Z</time></trkpt><trkpt lat="45.7132265" lon="9.8837314"><ele>288.0</ele><time>2026-04-05T07:25:45.971Z</time></trkpt><trkpt lat="45.7131747" lon="9.8836093"><ele>288.0</ele><time>2026-04-05T07:25:47.972Z</time></trkpt><trkpt lat="45.7131309" lon="9.8834822"><ele>288.0</ele><time>2026-04-05T07:25:49.97Z</time></trkpt><trkpt lat="45.7130889" lon="9.88334"><ele>288.0</ele><time>2026-04-05T07:25:51.975Z</time></trkpt><trkpt lat="45.7130622" lon="9.8832047"><ele>288.0</ele><time>2026-04-05T07:25:53.968Z</time></trkpt><trkpt lat="45.7130442" lon="9.8830501"><ele>287.1666666666667</ele><time>2026-04-05T07:25:55.965Z</time></trkpt><trkpt lat="45.7130392" lon="9.8829571"><ele>286.3333333333333</ele><time>2026-04-05T07:25:56.973Z</time></trkpt><trkpt lat="45.7130374" lon="9.882865"><ele>285.5</ele><time>2026-04-05T07:25:57.97Z</time></trkpt><trkpt lat="45.7130311" lon="9.882773"><ele>284.66666666666663</ele><time>2026-04-05T07:25:58.968Z</time></trkpt><trkpt lat="45.7130312" lon="9.8825977"><ele>283.8333333333333</ele><time>2026-04-05T07:26:00.962Z</time></trkpt><trkpt lat="45.713034" lon="9.8824393"><ele>283.0</ele><time>2026-04-05T07:26:02.966Z</time></trkpt><trkpt lat="45.7130336" lon="9.8822789"><ele>283.0</ele><time>2026-04-05T07:26:04.972Z</time></trkpt><trkpt lat="45.7130396" lon="9.882118"><ele>283.0</ele><time>2026-04-05T07:26:07.029Z</time></trkpt><trkpt lat="45.713039" lon="9.8819582"><ele>283.0</ele><time>2026-04-05T07:26:08.961Z</time></trkpt><trkpt lat="45.7130472" lon="9.8818056"><ele>283.0</ele><time>2026-04-05T07:26:10.97Z</time></trkpt><trkpt lat="45.7130407" lon="9.8816441"><ele>283.0</ele><time>2026-04-05T07:26:12.963Z</time></trkpt><trkpt lat="45.7130218" lon="9.8814773"><ele>282.8</ele><time>2026-04-05T07:26:14.97Z</time></trkpt><trkpt lat="45.7129846" lon="9.8813282"><ele>282.6</ele><time>2026-04-05T07:26:17.045Z</time></trkpt><trkpt lat="45.712933" lon="9.8811997"><ele>282.4</ele><time>2026-04-05T07:26:19.032Z</time></trkpt><trkpt lat="45.712858" lon="9.8810907"><ele>282.2</ele><time>2026-04-05T07:26:20.959Z</time></trkpt><trkpt lat="45.7127688" lon="9.8810138"><ele>282.0</ele><time>2026-04-05T07:26:22.991Z</time></trkpt><trkpt lat="45.712667" lon="9.8809689"><ele>281.6</ele><time>2026-04-05T07:26:25.037Z</time></trkpt><trkpt lat="45.7125798" lon="9.8809608"><ele>281.2</ele><time>2026-04-05T07:26:26.967Z</time></trkpt><trkpt lat="45.7124795" lon="9.8809524"><ele>280.8</ele><time>2026-04-05T07:26:28.971Z</time></trkpt><trkpt lat="45.7123634" lon="9.8809575"><ele>280.4</ele><time>2026-04-05T07:26:30.971Z</time></trkpt><trkpt lat="45.7122425" lon="9.880961"><ele>280.0</ele><time>2026-04-05T07:26:33.027Z</time></trkpt><trkpt lat="45.7121303" lon="9.8809605"><ele>280.0</ele><time>2026-04-05T07:26:34.959Z</time></trkpt><trkpt lat="45.7120201" lon="9.8809533"><ele>280.0</ele><time>2026-04-05T07:26:36.954Z</time></trkpt><trkpt lat="45.7119079" lon="9.8809326"><ele>280.0</ele><time>2026-04-05T07:26:38.972Z</time></trkpt><trkpt lat="45.7118094" lon="9.880894"><ele>280.0</ele><time>2026-04-05T07:26:40.949Z</time></trkpt><trkpt lat="45.7117186" lon="9.8808315"><ele>280.0</ele><time>2026-04-05T07:26:42.957Z</time></trkpt><trkpt lat="45.7116319" lon="9.8807557"><ele>281.25</ele><time>2026-04-05T07:26:44.958Z</time></trkpt><trkpt lat="45.7115768" lon="9.880637"><ele>282.5</ele><time>2026-04-05T07:26:46.958Z</time></trkpt><trkpt lat="45.7115418" lon="9.8804832"><ele>283.75</ele><time>2026-04-05T07:26:48.953Z</time></trkpt><trkpt lat="45.7114986" lon="9.8803281"><ele>285.0</ele><time>2026-04-05T07:26:50.955Z</time></trkpt><trkpt lat="45.7114526" lon="9.8801682"><ele>284.0</ele><time>2026-04-05T07:26:52.96Z</time></trkpt><trkpt lat="45.7114095" lon="9.8800035"><ele>283.0</ele><time>2026-04-05T07:26:54.941Z</time></trkpt><trkpt lat="45.7113836" lon="9.8799198"><ele>282.0</ele><time>2026-04-05T07:26:55.953Z</time></trkpt><trkpt lat="45.7113353" lon="9.8797569"><ele>281.0</ele><time>2026-04-05T07:26:57.973Z</time></trkpt><trkpt lat="45.7112811" lon="9.8796023"><ele>280.0</ele><time>2026-04-05T07:26:59.971Z</time></trkpt><trkpt lat="45.7112281" lon="9.8794875"><ele>280.0</ele><time>2026-04-05T07:27:01.977Z</time></trkpt><trkpt lat="45.711189" lon="9.8794083"><ele>280.0</ele><time>2026-04-05T07:27:04.963Z</time></trkpt><trkpt lat="45.7110934" lon="9.87938"><ele>280.0</ele><time>2026-04-05T07:27:07.974Z</time></trkpt><trkpt lat="45.7109865" lon="9.8793151"><ele>280.0</ele><time>2026-04-05T07:27:09.969Z</time></trkpt><trkpt lat="45.7108961" lon="9.8792216"><ele>280.0</ele><time>2026-04-05T07:27:11.953Z</time></trkpt><trkpt lat="45.710834" lon="9.8791311"><ele>280.0</ele><time>2026-04-05T07:27:13.974Z</time></trkpt><trkpt lat="45.7107663" lon="9.8790271"><ele>280.0</ele><time>2026-04-05T07:27:15.969Z</time></trkpt><trkpt lat="45.7107013" lon="9.878904"><ele>280.0</ele><time>2026-04-05T07:27:17.97Z</time></trkpt><trkpt lat="45.7106392" lon="9.8787866"><ele>280.0</ele><time>2026-04-05T07:27:19.974Z</time></trkpt><trkpt lat="45.7105606" lon="9.8786655"><ele>280.0</ele><time>2026-04-05T07:27:21.974Z</time></trkpt><trkpt lat="45.7105123" lon="9.8786002"><ele>280.0</ele><time>2026-04-05T07:27:22.969Z</time></trkpt><trkpt lat="45.71046" lon="9.8785398"><ele>280.0</ele><time>2026-04-05T07:27:24.034Z</time></trkpt><trkpt lat="45.7104079" lon="9.8784886"><ele>280.0</ele><time>2026-04-05T07:27:25.037Z</time></trkpt><trkpt lat="45.7103002" lon="9.8784146"><ele>280.0</ele><time>2026-04-05T07:27:26.966Z</time></trkpt><trkpt lat="45.7102028" lon="9.8783454"><ele>280.0</ele><time>2026-04-05T07:27:29.025Z</time></trkpt><trkpt lat="45.710103" lon="9.8782523"><ele>280.5</ele><time>2026-04-05T07:27:30.963Z</time></trkpt><trkpt lat="45.7100067" lon="9.8781425"><ele>281.0</ele><time>2026-04-05T07:27:32.985Z</time></trkpt><trkpt lat="45.7099216" lon="9.87803"><ele>281.5</ele><time>2026-04-05T07:27:34.975Z</time></trkpt><trkpt lat="45.7098586" lon="9.8779032"><ele>282.0</ele><time>2026-04-05T07:27:36.962Z</time></trkpt><trkpt lat="45.7097733" lon="9.8777992"><ele>282.0</ele><time>2026-04-05T07:27:39.029Z</time></trkpt><trkpt lat="45.7096785" lon="9.8777249"><ele>282.0</ele><time>2026-04-05T07:27:40.956Z</time></trkpt><trkpt lat="45.7095786" lon="9.8776303"><ele>282.0</ele><time>2026-04-05T07:27:42.949Z</time></trkpt><trkpt lat="45.7095186" lon="9.8775846"><ele>282.0</ele><time>2026-04-05T07:27:43.952Z</time></trkpt><trkpt lat="45.7094639" lon="9.8775285"><ele>282.0</ele><time>2026-04-05T07:27:44.952Z</time></trkpt><trkpt lat="45.7094073" lon="9.8774778"><ele>282.0</ele><time>2026-04-05T07:27:45.951Z</time></trkpt><trkpt lat="45.7093516" lon="9.8774274"><ele>282.3333333333333</ele><time>2026-04-05T07:27:46.956Z</time></trkpt><trkpt lat="45.7092978" lon="9.8773773"><ele>282.6666666666667</ele><time>2026-04-05T07:27:47.951Z</time></trkpt><trkpt lat="45.709244" lon="9.877325"><ele>283.0</ele><time>2026-04-05T07:27:49.039Z</time></trkpt><trkpt lat="45.7091378" lon="9.8772199"><ele>283.33333333333337</ele><time>2026-04-05T07:27:50.947Z</time></trkpt><trkpt lat="45.7090792" lon="9.8771748"><ele>283.6666666666667</ele><time>2026-04-05T07:27:51.948Z</time></trkpt><trkpt lat="45.7090193" lon="9.8771301"><ele>284.0</ele><time>2026-04-05T07:27:52.959Z</time></trkpt><trkpt lat="45.7089612" lon="9.8770912"><ele>284.0</ele><time>2026-04-05T07:27:53.959Z</time></trkpt><trkpt lat="45.7088591" lon="9.877007"><ele>284.0</ele><time>2026-04-05T07:27:55.954Z</time></trkpt><trkpt lat="45.7087596" lon="9.8769314"><ele>284.0</ele><time>2026-04-05T07:27:58.03Z</time></trkpt><trkpt lat="45.7086745" lon="9.876846"><ele>284.0</ele><time>2026-04-05T07:27:59.961Z</time></trkpt><trkpt lat="45.7085753" lon="9.8767626"><ele>284.0</ele><time>2026-04-05T07:28:01.954Z</time></trkpt><trkpt lat="45.7084659" lon="9.8766873"><ele>282.75</ele><time>2026-04-05T07:28:03.959Z</time></trkpt><trkpt lat="45.7083675" lon="9.8766061"><ele>281.5</ele><time>2026-04-05T07:28:05.958Z</time></trkpt><trkpt lat="45.7082569" lon="9.8765273"><ele>280.25</ele><time>2026-04-05T07:28:07.956Z</time></trkpt><trkpt lat="45.708165" lon="9.8764467"><ele>279.0</ele><time>2026-04-05T07:28:09.947Z</time></trkpt><trkpt lat="45.7080732" lon="9.8763651"><ele>279.0</ele><time>2026-04-05T07:28:12.032Z</time></trkpt><trkpt lat="45.7079819" lon="9.8762839"><ele>279.0</ele><time>2026-04-05T07:28:14.026Z</time></trkpt><trkpt lat="45.7078919" lon="9.8761926"><ele>279.0</ele><time>2026-04-05T07:28:15.952Z</time></trkpt><trkpt lat="45.7078083" lon="9.8760986"><ele>279.0</ele><time>2026-04-05T07:28:17.964Z</time></trkpt><trkpt lat="45.7077277" lon="9.876001"><ele>279.0</ele><time>2026-04-05T07:28:20.042Z</time></trkpt><trkpt lat="45.7076607" lon="9.875898"><ele>278.2</ele><time>2026-04-05T07:28:21.963Z</time></trkpt><trkpt lat="45.7075812" lon="9.8757683"><ele>277.4</ele><time>2026-04-05T07:28:24.034Z</time></trkpt><trkpt lat="45.7074959" lon="9.8756359"><ele>276.6</ele><time>2026-04-05T07:28:25.96Z</time></trkpt><trkpt lat="45.7074477" lon="9.8755709"><ele>275.8</ele><time>2026-04-05T07:28:27.028Z</time></trkpt><trkpt lat="45.707373" lon="9.8754432"><ele>275.0</ele><time>2026-04-05T07:28:29.036Z</time></trkpt><trkpt lat="45.7073236" lon="9.8753272"><ele>275.0</ele><time>2026-04-05T07:28:30.969Z</time></trkpt><trkpt lat="45.7072832" lon="9.875201"><ele>275.0</ele><time>2026-04-05T07:28:32.969Z</time></trkpt><trkpt lat="45.7072292" lon="9.8750834"><ele>275.0</ele><time>2026-04-05T07:28:34.966Z</time></trkpt><trkpt lat="45.7071759" lon="9.8749448"><ele>275.0</ele><time>2026-04-05T07:28:37.036Z</time></trkpt><trkpt lat="45.7071139" lon="9.8747931"><ele>275.0</ele><time>2026-04-05T07:28:38.949Z</time></trkpt><trkpt lat="45.7070657" lon="9.8746473"><ele>275.0</ele><time>2026-04-05T07:28:40.952Z</time></trkpt><trkpt lat="45.7070053" lon="9.8744995"><ele>275.0</ele><time>2026-04-05T07:28:42.951Z</time></trkpt><trkpt lat="45.7069495" lon="9.8743389"><ele>275.0</ele><time>2026-04-05T07:28:44.95Z</time></trkpt><trkpt lat="45.7069143" lon="9.8742602"><ele>275.0</ele><time>2026-04-05T07:28:45.951Z</time></trkpt><trkpt lat="45.7068775" lon="9.8741776"><ele>275.0</ele><time>2026-04-05T07:28:47.07Z</time></trkpt><trkpt lat="45.7068164" lon="9.8740169"><ele>275.0</ele><time>2026-04-05T07:28:49.028Z</time></trkpt><trkpt lat="45.7067661" lon="9.8738756"><ele>275.0</ele><time>2026-04-05T07:28:50.957Z</time></trkpt><trkpt lat="45.7067186" lon="9.8737413"><ele>275.0</ele><time>2026-04-05T07:28:52.963Z</time></trkpt><trkpt lat="45.7066717" lon="9.8736104"><ele>275.0</ele><time>2026-04-05T07:28:55.036Z</time></trkpt><trkpt lat="45.7066243" lon="9.8734643"><ele>275.0</ele><time>2026-04-05T07:28:56.959Z</time></trkpt><trkpt lat="45.7065687" lon="9.8733156"><ele>274.0</ele><time>2026-04-05T07:28:58.97Z</time></trkpt><trkpt lat="45.7065129" lon="9.8731672"><ele>273.0</ele><time>2026-04-05T07:29:00.958Z</time></trkpt><trkpt lat="45.7064539" lon="9.873024"><ele>272.0</ele><time>2026-04-05T07:29:03.031Z</time></trkpt><trkpt lat="45.7063971" lon="9.8728786"><ele>271.0</ele><time>2026-04-05T07:29:05.036Z</time></trkpt><trkpt lat="45.7063451" lon="9.8727303"><ele>270.8</ele><time>2026-04-05T07:29:06.969Z</time></trkpt><trkpt lat="45.7062988" lon="9.8725883"><ele>270.6</ele><time>2026-04-05T07:29:09.03Z</time></trkpt><trkpt lat="45.7062384" lon="9.8724458"><ele>270.4</ele><time>2026-04-05T07:29:10.964Z</time></trkpt><trkpt lat="45.7061845" lon="9.8723056"><ele>270.2</ele><time>2026-04-05T07:29:12.97Z</time></trkpt><trkpt lat="45.7061355" lon="9.8721643"><ele>270.0</ele><time>2026-04-05T07:29:14.966Z</time></trkpt><trkpt lat="45.7060818" lon="9.8720293"><ele>270.0</ele><time>2026-04-05T07:29:16.969Z</time></trkpt><trkpt lat="45.706033" lon="9.8718875"><ele>270.0</ele><time>2026-04-05T07:29:19.04Z</time></trkpt><trkpt lat="45.7059884" lon="9.8717481"><ele>270.0</ele><time>2026-04-05T07:29:20.968Z</time></trkpt><trkpt lat="45.7059405" lon="9.8716183"><ele>270.0</ele><time>2026-04-05T07:29:22.967Z</time></trkpt><trkpt lat="45.7058854" lon="9.8714737"><ele>270.0</ele><time>2026-04-05T07:29:24.969Z</time></trkpt><trkpt lat="45.7058378" lon="9.8713425"><ele>270.0</ele><time>2026-04-05T07:29:27.033Z</time></trkpt><trkpt lat="45.7057926" lon="9.8712001"><ele>270.0</ele><time>2026-04-05T07:29:29.029Z</time></trkpt><trkpt lat="45.7057399" lon="9.871053"><ele>270.0</ele><time>2026-04-05T07:29:30.972Z</time></trkpt><trkpt lat="45.7056872" lon="9.8709121"><ele>270.0</ele><time>2026-04-05T07:29:33Z</time></trkpt><trkpt lat="45.7056415" lon="9.8707629"><ele>270.0</ele><time>2026-04-05T07:29:35.029Z</time></trkpt><trkpt lat="45.7056063" lon="9.8706138"><ele>270.0</ele><time>2026-04-05T07:29:37.015Z</time></trkpt><trkpt lat="45.7055625" lon="9.8704648"><ele>270.0</ele><time>2026-04-05T07:29:39.032Z</time></trkpt><trkpt lat="45.7055316" lon="9.8703246"><ele>270.0</ele><time>2026-04-05T07:29:40.955Z</time></trkpt><trkpt lat="45.7055084" lon="9.870183"><ele>270.0</ele><time>2026-04-05T07:29:43.038Z</time></trkpt><trkpt lat="45.7054734" lon="9.8700314"><ele>269.75</ele><time>2026-04-05T07:29:45.039Z</time></trkpt><trkpt lat="45.7054361" lon="9.8698765"><ele>269.5</ele><time>2026-04-05T07:29:46.975Z</time></trkpt><trkpt lat="45.7053962" lon="9.8697197"><ele>269.25</ele><time>2026-04-05T07:29:49.043Z</time></trkpt><trkpt lat="45.7053621" lon="9.8695622"><ele>269.0</ele><time>2026-04-05T07:29:50.963Z</time></trkpt><trkpt lat="45.7053383" lon="9.8694106"><ele>268.5</ele><time>2026-04-05T07:29:52.986Z</time></trkpt><trkpt lat="45.7053013" lon="9.8692512"><ele>268.0</ele><time>2026-04-05T07:29:54.971Z</time></trkpt><trkpt lat="45.7052709" lon="9.8690853"><ele>267.5</ele><time>2026-04-05T07:29:56.974Z</time></trkpt><trkpt lat="45.7052412" lon="9.8689363"><ele>267.0</ele><time>2026-04-05T07:29:58.974Z</time></trkpt><trkpt lat="45.7052355" lon="9.8687824"><ele>267.4</ele><time>2026-04-05T07:30:00.969Z</time></trkpt><trkpt lat="45.7052454" lon="9.8686179"><ele>267.79999999999995</ele><time>2026-04-05T07:30:02.976Z</time></trkpt><trkpt lat="45.7051738" lon="9.8684986"><ele>268.2</ele><time>2026-04-05T07:30:04.953Z</time></trkpt><trkpt lat="45.7051195" lon="9.8683847"><ele>268.59999999999997</ele><time>2026-04-05T07:30:06.967Z</time></trkpt><trkpt lat="45.7050802" lon="9.8682229"><ele>269.0</ele><time>2026-04-05T07:30:09.038Z</time></trkpt><trkpt lat="45.7050511" lon="9.8680634"><ele>269.0</ele><time>2026-04-05T07:30:10.983Z</time></trkpt><trkpt lat="45.7050396" lon="9.8679019"><ele>269.0</ele><time>2026-04-05T07:30:12.964Z</time></trkpt><trkpt lat="45.7050214" lon="9.8677474"><ele>269.0</ele><time>2026-04-05T07:30:14.963Z</time></trkpt><trkpt lat="45.7050094" lon="9.8675844"><ele>269.0</ele><time>2026-04-05T07:30:16.954Z</time></trkpt><trkpt lat="45.7050021" lon="9.8674135"><ele>268.8</ele><time>2026-04-05T07:30:18.968Z</time></trkpt><trkpt lat="45.704982" lon="9.8672382"><ele>268.59999999999997</ele><time>2026-04-05T07:30:20.963Z</time></trkpt><trkpt lat="45.7049691" lon="9.8670662"><ele>268.4</ele><time>2026-04-05T07:30:22.958Z</time></trkpt><trkpt lat="45.704946" lon="9.8668988"><ele>268.2</ele><time>2026-04-05T07:30:24.96Z</time></trkpt><trkpt lat="45.7049363" lon="9.866806"><ele>268.0</ele><time>2026-04-05T07:30:25.961Z</time></trkpt><trkpt lat="45.7049313" lon="9.8666361"><ele>268.0</ele><time>2026-04-05T07:30:27.96Z</time></trkpt><trkpt lat="45.7049154" lon="9.8664545"><ele>268.0</ele><time>2026-04-05T07:30:30.034Z</time></trkpt><trkpt lat="45.704902" lon="9.8662898"><ele>268.0</ele><time>2026-04-05T07:30:31.959Z</time></trkpt><trkpt lat="45.7048837" lon="9.8661156"><ele>268.0</ele><time>2026-04-05T07:30:33.956Z</time></trkpt><trkpt lat="45.7048667" lon="9.8659466"><ele>267.25</ele><time>2026-04-05T07:30:35.952Z</time></trkpt><trkpt lat="45.7048519" lon="9.865792"><ele>266.5</ele><time>2026-04-05T07:30:38.053Z</time></trkpt><trkpt lat="45.7048369" lon="9.8656262"><ele>265.75</ele><time>2026-04-05T07:30:39.954Z</time></trkpt><trkpt lat="45.704827" lon="9.865472"><ele>265.0</ele><time>2026-04-05T07:30:41.957Z</time></trkpt><trkpt lat="45.7048086" lon="9.8653074"><ele>265.0</ele><time>2026-04-05T07:30:43.947Z</time></trkpt><trkpt lat="45.7047873" lon="9.865144"><ele>265.0</ele><time>2026-04-05T07:30:45.95Z</time></trkpt><trkpt lat="45.704769" lon="9.8649846"><ele>265.0</ele><time>2026-04-05T07:30:47.954Z</time></trkpt><trkpt lat="45.7047393" lon="9.8648286"><ele>265.0</ele><time>2026-04-05T07:30:50.032Z</time></trkpt><trkpt lat="45.7047119" lon="9.8646687"><ele>265.25</ele><time>2026-04-05T07:30:51.959Z</time></trkpt><trkpt lat="45.7046833" lon="9.8645117"><ele>265.5</ele><time>2026-04-05T07:30:53.964Z</time></trkpt><trkpt lat="45.7046463" lon="9.8643562"><ele>265.75</ele><time>2026-04-05T07:30:55.961Z</time></trkpt><trkpt lat="45.7046114" lon="9.8641929"><ele>266.0</ele><time>2026-04-05T07:30:57.964Z</time></trkpt><trkpt lat="45.7045666" lon="9.8640294"><ele>266.0</ele><time>2026-04-05T07:31:00.021Z</time></trkpt><trkpt lat="45.7045335" lon="9.8638782"><ele>266.0</ele><time>2026-04-05T07:31:01.951Z</time></trkpt><trkpt lat="45.7044946" lon="9.8637257"><ele>266.0</ele><time>2026-04-05T07:31:04.042Z</time></trkpt><trkpt lat="45.7044488" lon="9.8635743"><ele>266.0</ele><time>2026-04-05T07:31:05.968Z</time></trkpt><trkpt lat="45.7044079" lon="9.8634254"><ele>266.5</ele><time>2026-04-05T07:31:08.044Z</time></trkpt><trkpt lat="45.7043717" lon="9.8632741"><ele>267.0</ele><time>2026-04-05T07:31:10.048Z</time></trkpt><trkpt lat="45.7043351" lon="9.8631251"><ele>267.5</ele><time>2026-04-05T07:31:11.962Z</time></trkpt><trkpt lat="45.7042876" lon="9.8629674"><ele>268.0</ele><time>2026-04-05T07:31:14.036Z</time></trkpt><trkpt lat="45.7042386" lon="9.862826"><ele>268.0</ele><time>2026-04-05T07:31:15.947Z</time></trkpt><trkpt lat="45.7041455" lon="9.8627898"><ele>268.0</ele><time>2026-04-05T07:31:17.948Z</time></trkpt><trkpt lat="45.70408" lon="9.862896"><ele>268.0</ele><time>2026-04-05T07:31:19.962Z</time></trkpt><trkpt lat="45.7040577" lon="9.8630072"><ele>268.0</ele><time>2026-04-05T07:31:21.955Z</time></trkpt><trkpt lat="45.704009" lon="9.8631073"><ele>268.0</ele><time>2026-04-05T07:31:23.954Z</time></trkpt><trkpt lat="45.7039497" lon="9.8632191"><ele>268.0</ele><time>2026-04-05T07:31:25.955Z</time></trkpt><trkpt lat="45.7038698" lon="9.8632912"><ele>268.0</ele><time>2026-04-05T07:31:27.954Z</time></trkpt><trkpt lat="45.7037672" lon="9.863312"><ele>268.0</ele><time>2026-04-05T07:31:29.946Z</time></trkpt><trkpt lat="45.7036766" lon="9.8632686"><ele>268.0</ele><time>2026-04-05T07:31:31.95Z</time></trkpt><trkpt lat="45.703575" lon="9.8632474"><ele>268.0</ele><time>2026-04-05T07:31:33.946Z</time></trkpt><trkpt lat="45.7034851" lon="9.8632565"><ele>269.2</ele><time>2026-04-05T07:31:35.951Z</time></trkpt><trkpt lat="45.7034076" lon="9.8633142"><ele>270.4</ele><time>2026-04-05T07:31:37.945Z</time></trkpt><trkpt lat="45.7033142" lon="9.86334"><ele>271.59999999999997</ele><time>2026-04-05T07:31:39.948Z</time></trkpt><trkpt lat="45.7032346" lon="9.8632746"><ele>272.8</ele><time>2026-04-05T07:31:41.949Z</time></trkpt><trkpt lat="45.7031962" lon="9.8631493"><ele>274.0</ele><time>2026-04-05T07:31:43.951Z</time></trkpt><trkpt lat="45.7031577" lon="9.8630238"><ele>274.0</ele><time>2026-04-05T07:31:45.954Z</time></trkpt><trkpt lat="45.703125" lon="9.8628884"><ele>274.0</ele><time>2026-04-05T07:31:47.953Z</time></trkpt><trkpt lat="45.7030975" lon="9.8627549"><ele>274.0</ele><time>2026-04-05T07:31:49.957Z</time></trkpt><trkpt lat="45.7030609" lon="9.8626223"><ele>274.0</ele><time>2026-04-05T07:31:51.939Z</time></trkpt><trkpt lat="45.7030209" lon="9.8624802"><ele>274.0</ele><time>2026-04-05T07:31:53.947Z</time></trkpt><trkpt lat="45.7029599" lon="9.8623263"><ele>274.8333333333333</ele><time>2026-04-05T07:31:55.952Z</time></trkpt><trkpt lat="45.7028784" lon="9.8621904"><ele>275.66666666666663</ele><time>2026-04-05T07:31:57.954Z</time></trkpt><trkpt lat="45.7028276" lon="9.8621253"><ele>276.5</ele><time>2026-04-05T07:31:58.95Z</time></trkpt><trkpt lat="45.7027736" lon="9.8620747"><ele>277.3333333333333</ele><time>2026-04-05T07:31:59.953Z</time></trkpt><trkpt lat="45.7027143" lon="9.8620299"><ele>278.1666666666667</ele><time>2026-04-05T07:32:00.953Z</time></trkpt><trkpt lat="45.7026532" lon="9.8620034"><ele>279.0</ele><time>2026-04-05T07:32:01.956Z</time></trkpt><trkpt lat="45.7025945" lon="9.8619672"><ele>279.0</ele><time>2026-04-05T07:32:02.952Z</time></trkpt><trkpt lat="45.7024866" lon="9.8618977"><ele>279.0</ele><time>2026-04-05T07:32:04.955Z</time></trkpt><trkpt lat="45.7023884" lon="9.8618306"><ele>279.0</ele><time>2026-04-05T07:32:06.94Z</time></trkpt><trkpt lat="45.7022923" lon="9.8617784"><ele>279.0</ele><time>2026-04-05T07:32:08.943Z</time></trkpt><trkpt lat="45.7022047" lon="9.8616922"><ele>279.0</ele><time>2026-04-05T07:32:10.951Z</time></trkpt><trkpt lat="45.7021016" lon="9.8616385"><ele>277.0</ele><time>2026-04-05T07:32:12.955Z</time></trkpt><trkpt lat="45.7019997" lon="9.8616075"><ele>275.0</ele><time>2026-04-05T07:32:15.034Z</time></trkpt><trkpt lat="45.7019048" lon="9.8615677"><ele>273.0</ele><time>2026-04-05T07:32:16.956Z</time></trkpt><trkpt lat="45.701815" lon="9.8615223"><ele>271.0</ele><time>2026-04-05T07:32:18.958Z</time></trkpt><trkpt lat="45.7017261" lon="9.8614833"><ele>269.0</ele><time>2026-04-05T07:32:20.951Z</time></trkpt><trkpt lat="45.7016286" lon="9.8614619"><ele>269.0</ele><time>2026-04-05T07:32:23.033Z</time></trkpt><trkpt lat="45.7015445" lon="9.8614438"><ele>269.0</ele><time>2026-04-05T07:32:24.97Z</time></trkpt><trkpt lat="45.7014366" lon="9.8614493"><ele>269.0</ele><time>2026-04-05T07:32:26.961Z</time></trkpt><trkpt lat="45.701371" lon="9.8614523"><ele>269.0</ele><time>2026-04-05T07:32:27.966Z</time></trkpt><trkpt lat="45.7013057" lon="9.8614553"><ele>269.0</ele><time>2026-04-05T07:32:28.97Z</time></trkpt><trkpt lat="45.7012347" lon="9.861457"><ele>269.0</ele><time>2026-04-05T07:32:29.966Z</time></trkpt><trkpt lat="45.7011631" lon="9.8614609"><ele>269.0</ele><time>2026-04-05T07:32:30.976Z</time></trkpt><trkpt lat="45.7010911" lon="9.8614652"><ele>269.0</ele><time>2026-04-05T07:32:31.962Z</time></trkpt><trkpt lat="45.701006" lon="9.8614877"><ele>269.0</ele><time>2026-04-05T07:32:32.967Z</time></trkpt><trkpt lat="45.7009218" lon="9.861511"><ele>269.0</ele><time>2026-04-05T07:32:33.963Z</time></trkpt><trkpt lat="45.7008321" lon="9.8615264"><ele>269.0</ele><time>2026-04-05T07:32:34.973Z</time></trkpt><trkpt lat="45.700746" lon="9.861542"><ele>269.0</ele><time>2026-04-05T07:32:35.969Z</time></trkpt><trkpt lat="45.7006593" lon="9.8615486"><ele>269.14285714285717</ele><time>2026-04-05T07:32:36.966Z</time></trkpt><trkpt lat="45.7005802" lon="9.8615346"><ele>269.28571428571433</ele><time>2026-04-05T07:32:37.968Z</time></trkpt><trkpt lat="45.7005051" lon="9.8615242"><ele>269.42857142857144</ele><time>2026-04-05T07:32:38.96Z</time></trkpt><trkpt lat="45.700439" lon="9.8614953"><ele>269.57142857142856</ele><time>2026-04-05T07:32:39.963Z</time></trkpt><trkpt lat="45.7003705" lon="9.861457"><ele>269.71428571428567</ele><time>2026-04-05T07:32:40.967Z</time></trkpt><trkpt lat="45.7003117" lon="9.8614171"><ele>269.85714285714283</ele><time>2026-04-05T07:32:41.967Z</time></trkpt><trkpt lat="45.7002539" lon="9.8613736"><ele>270.0</ele><time>2026-04-05T07:32:42.952Z</time></trkpt><trkpt lat="45.7001533" lon="9.8612646"><ele>270.4</ele><time>2026-04-05T07:32:44.965Z</time></trkpt><trkpt lat="45.7000584" lon="9.8611538"><ele>270.8</ele><time>2026-04-05T07:32:46.97Z</time></trkpt><trkpt lat="45.6999759" lon="9.8610616"><ele>271.2</ele><time>2026-04-05T07:32:48.968Z</time></trkpt><trkpt lat="45.6998916" lon="9.8609684"><ele>271.6</ele><time>2026-04-05T07:32:50.969Z</time></trkpt><trkpt lat="45.6998107" lon="9.8608933"><ele>272.0</ele><time>2026-04-05T07:32:52.965Z</time></trkpt><trkpt lat="45.6997246" lon="9.860832"><ele>272.2</ele><time>2026-04-05T07:32:54.97Z</time></trkpt><trkpt lat="45.6996388" lon="9.8607436"><ele>272.4</ele><time>2026-04-05T07:32:56.967Z</time></trkpt><trkpt lat="45.6995618" lon="9.8606502"><ele>272.6</ele><time>2026-04-05T07:32:58.968Z</time></trkpt><trkpt lat="45.699481" lon="9.8605618"><ele>272.8</ele><time>2026-04-05T07:33:00.967Z</time></trkpt><trkpt lat="45.6994018" lon="9.8604716"><ele>273.0</ele><time>2026-04-05T07:33:02.959Z</time></trkpt><trkpt lat="45.6993207" lon="9.8603746"><ele>273.0</ele><time>2026-04-05T07:33:04.967Z</time></trkpt><trkpt lat="45.6992493" lon="9.8602832"><ele>273.0</ele><time>2026-04-05T07:33:06.963Z</time></trkpt><trkpt lat="45.699152" lon="9.8601769"><ele>273.0</ele><time>2026-04-05T07:33:08.965Z</time></trkpt><trkpt lat="45.6991059" lon="9.8601077"><ele>273.0</ele><time>2026-04-05T07:33:09.963Z</time></trkpt><trkpt lat="45.6990294" lon="9.8599709"><ele>273.0</ele><time>2026-04-05T07:33:11.971Z</time></trkpt><trkpt lat="45.69896" lon="9.8598396"><ele>271.0</ele><time>2026-04-05T07:33:13.968Z</time></trkpt><trkpt lat="45.6989148" lon="9.8597712"><ele>269.0</ele><time>2026-04-05T07:33:14.965Z</time></trkpt><trkpt lat="45.6988734" lon="9.8597031"><ele>267.0</ele><time>2026-04-05T07:33:15.959Z</time></trkpt><trkpt lat="45.6988071" lon="9.8595726"><ele>265.0</ele><time>2026-04-05T07:33:17.963Z</time></trkpt><trkpt lat="45.6987305" lon="9.8594465"><ele>263.0</ele><time>2026-04-05T07:33:19.96Z</time></trkpt><trkpt lat="45.6986434" lon="9.8593256"><ele>266.4</ele><time>2026-04-05T07:33:21.968Z</time></trkpt><trkpt lat="45.6985544" lon="9.8592066"><ele>269.8</ele><time>2026-04-05T07:33:23.964Z</time></trkpt><trkpt lat="45.69851" lon="9.8591368"><ele>273.2</ele><time>2026-04-05T07:33:24.961Z</time></trkpt><trkpt lat="45.6984203" lon="9.8590096"><ele>276.6</ele><time>2026-04-05T07:33:26.96Z</time></trkpt><trkpt lat="45.698341" lon="9.8588932"><ele>280.0</ele><time>2026-04-05T07:33:28.962Z</time></trkpt><trkpt lat="45.6982585" lon="9.8587887"><ele>280.0</ele><time>2026-04-05T07:33:30.967Z</time></trkpt><trkpt lat="45.6981773" lon="9.8586758"><ele>280.0</ele><time>2026-04-05T07:33:32.955Z</time></trkpt><trkpt lat="45.698098" lon="9.8585579"><ele>280.0</ele><time>2026-04-05T07:33:34.972Z</time></trkpt><trkpt lat="45.6980233" lon="9.8584477"><ele>280.0</ele><time>2026-04-05T07:33:36.968Z</time></trkpt><trkpt lat="45.6979498" lon="9.8583333"><ele>280.0</ele><time>2026-04-05T07:33:39.037Z</time></trkpt><trkpt lat="45.6978817" lon="9.8582151"><ele>280.6</ele><time>2026-04-05T07:33:40.952Z</time></trkpt><trkpt lat="45.6978072" lon="9.8580986"><ele>281.2</ele><time>2026-04-05T07:33:42.986Z</time></trkpt><trkpt lat="45.6977375" lon="9.8579916"><ele>281.8</ele><time>2026-04-05T07:33:45.028Z</time></trkpt><trkpt lat="45.6976538" lon="9.8578997"><ele>282.4</ele><time>2026-04-05T07:33:46.957Z</time></trkpt><trkpt lat="45.6975664" lon="9.8577996"><ele>283.0</ele><time>2026-04-05T07:33:48.957Z</time></trkpt><trkpt lat="45.697501" lon="9.8576808"><ele>279.57142857142856</ele><time>2026-04-05T07:33:50.96Z</time></trkpt><trkpt lat="45.6974723" lon="9.8575972"><ele>276.14285714285717</ele><time>2026-04-05T07:33:52.03Z</time></trkpt><trkpt lat="45.6974434" lon="9.8575039"><ele>272.7142857142857</ele><time>2026-04-05T07:33:52.959Z</time></trkpt><trkpt lat="45.6974094" lon="9.857416"><ele>269.2857142857143</ele><time>2026-04-05T07:33:54.028Z</time></trkpt><trkpt lat="45.6973735" lon="9.8573408"><ele>265.8571428571429</ele><time>2026-04-05T07:33:54.97Z</time></trkpt><trkpt lat="45.6973287" lon="9.8572643"><ele>262.42857142857144</ele><time>2026-04-05T07:33:55.949Z</time></trkpt><trkpt lat="45.6972738" lon="9.8571933"><ele>259.0</ele><time>2026-04-05T07:33:56.95Z</time></trkpt><trkpt lat="45.6972093" lon="9.857127"><ele>259.0</ele><time>2026-04-05T07:33:57.949Z</time></trkpt><trkpt lat="45.6971444" lon="9.8570672"><ele>259.0</ele><time>2026-04-05T07:33:58.94Z</time></trkpt><trkpt lat="45.6970907" lon="9.8570056"><ele>259.0</ele><time>2026-04-05T07:33:59.987Z</time></trkpt><trkpt lat="45.6970372" lon="9.8569445"><ele>259.0</ele><time>2026-04-05T07:34:00.957Z</time></trkpt><trkpt lat="45.6969862" lon="9.8568873"><ele>259.0</ele><time>2026-04-05T07:34:01.954Z</time></trkpt><trkpt lat="45.6968993" lon="9.8567922"><ele>259.0</ele><time>2026-04-05T07:34:03.952Z</time></trkpt><trkpt lat="45.6968109" lon="9.8567044"><ele>260.0</ele><time>2026-04-05T07:34:05.949Z</time></trkpt><trkpt lat="45.6967213" lon="9.8566068"><ele>261.0</ele><time>2026-04-05T07:34:07.957Z</time></trkpt><trkpt lat="45.6966292" lon="9.8565081"><ele>262.0</ele><time>2026-04-05T07:34:10.03Z</time></trkpt><trkpt lat="45.6965385" lon="9.8563995"><ele>263.0</ele><time>2026-04-05T07:34:11.954Z</time></trkpt><trkpt lat="45.6964504" lon="9.8562949"><ele>263.0</ele><time>2026-04-05T07:34:14.032Z</time></trkpt><trkpt lat="45.6963731" lon="9.856177"><ele>263.0</ele><time>2026-04-05T07:34:15.952Z</time></trkpt><trkpt lat="45.6962874" lon="9.8560672"><ele>263.0</ele><time>2026-04-05T07:34:17.973Z</time></trkpt><trkpt lat="45.6962098" lon="9.8559499"><ele>263.0</ele><time>2026-04-05T07:34:20.029Z</time></trkpt><trkpt lat="45.696135" lon="9.8558473"><ele>263.0</ele><time>2026-04-05T07:34:21.962Z</time></trkpt><trkpt lat="45.69605" lon="9.8557536"><ele>265.4</ele><time>2026-04-05T07:34:24.026Z</time></trkpt><trkpt lat="45.6959625" lon="9.8556515"><ele>267.8</ele><time>2026-04-05T07:34:25.953Z</time></trkpt><trkpt lat="45.695888" lon="9.8555511"><ele>270.2</ele><time>2026-04-05T07:34:27.958Z</time></trkpt><trkpt lat="45.6958162" lon="9.8554537"><ele>272.6</ele><time>2026-04-05T07:34:30.03Z</time></trkpt><trkpt lat="45.6957393" lon="9.855347"><ele>275.0</ele><time>2026-04-05T07:34:31.951Z</time></trkpt><trkpt lat="45.6956682" lon="9.8552405"><ele>275.0</ele><time>2026-04-05T07:34:34.037Z</time></trkpt><trkpt lat="45.695591" lon="9.8551498"><ele>275.0</ele><time>2026-04-05T07:34:35.942Z</time></trkpt><trkpt lat="45.6955216" lon="9.8550393"><ele>275.0</ele><time>2026-04-05T07:34:37.956Z</time></trkpt><trkpt lat="45.6954413" lon="9.8549372"><ele>275.0</ele><time>2026-04-05T07:34:39.954Z</time></trkpt><trkpt lat="45.6953793" lon="9.8548269"><ele>275.0</ele><time>2026-04-05T07:34:42.03Z</time></trkpt><trkpt lat="45.6953117" lon="9.8547153"><ele>272.5</ele><time>2026-04-05T07:34:44.038Z</time></trkpt><trkpt lat="45.6952412" lon="9.8546053"><ele>270.0</ele><time>2026-04-05T07:34:45.956Z</time></trkpt><trkpt lat="45.6951531" lon="9.8544839"><ele>267.5</ele><time>2026-04-05T07:34:47.959Z</time></trkpt><trkpt lat="45.6951077" lon="9.8544164"><ele>265.0</ele><time>2026-04-05T07:34:48.963Z</time></trkpt><trkpt lat="45.695056" lon="9.8543474"><ele>262.5</ele><time>2026-04-05T07:34:49.97Z</time></trkpt><trkpt lat="45.6950034" lon="9.8542648"><ele>260.0</ele><time>2026-04-05T07:34:50.957Z</time></trkpt><trkpt lat="45.6949454" lon="9.8541892"><ele>260.0</ele><time>2026-04-05T07:34:51.945Z</time></trkpt><trkpt lat="45.6948892" lon="9.854116"><ele>260.0</ele><time>2026-04-05T07:34:52.954Z</time></trkpt><trkpt lat="45.6948329" lon="9.8540462"><ele>260.0</ele><time>2026-04-05T07:34:53.947Z</time></trkpt><trkpt lat="45.694778" lon="9.8539859"><ele>260.0</ele><time>2026-04-05T07:34:54.957Z</time></trkpt><trkpt lat="45.6947278" lon="9.8539277"><ele>260.0</ele><time>2026-04-05T07:34:55.953Z</time></trkpt><trkpt lat="45.6946369" lon="9.8538276"><ele>260.0</ele><time>2026-04-05T07:34:57.963Z</time></trkpt><trkpt lat="45.6945478" lon="9.8537478"><ele>260.0</ele><time>2026-04-05T07:35:00.043Z</time></trkpt><trkpt lat="45.6944597" lon="9.8536713"><ele>260.0</ele><time>2026-04-05T07:35:02.04Z</time></trkpt><trkpt lat="45.694369" lon="9.8535956"><ele>260.0</ele><time>2026-04-05T07:35:03.988Z</time></trkpt><trkpt lat="45.6942709" lon="9.8535231"><ele>260.0</ele><time>2026-04-05T07:35:05.967Z</time></trkpt><trkpt lat="45.6941788" lon="9.8534547"><ele>260.0</ele><time>2026-04-05T07:35:08.026Z</time></trkpt><trkpt lat="45.6940924" lon="9.8533759"><ele>260.0</ele><time>2026-04-05T07:35:09.956Z</time></trkpt><trkpt lat="45.6939964" lon="9.8533191"><ele>260.0</ele><time>2026-04-05T07:35:11.955Z</time></trkpt><trkpt lat="45.6938993" lon="9.8532613"><ele>260.0</ele><time>2026-04-05T07:35:14.024Z</time></trkpt><trkpt lat="45.6938055" lon="9.8531884"><ele>260.0</ele><time>2026-04-05T07:35:15.962Z</time></trkpt><trkpt lat="45.693718" lon="9.8531298"><ele>260.0</ele><time>2026-04-05T07:35:18.009Z</time></trkpt><trkpt lat="45.6936323" lon="9.8530814"><ele>263.6666666666667</ele><time>2026-04-05T07:35:19.966Z</time></trkpt><trkpt lat="45.6935483" lon="9.8530231"><ele>267.33333333333337</ele><time>2026-04-05T07:35:21.956Z</time></trkpt><trkpt lat="45.6934737" lon="9.8529806"><ele>271.0</ele><time>2026-04-05T07:35:23.966Z</time></trkpt><trkpt lat="45.6934063" lon="9.8529467"><ele>274.6666666666667</ele><time>2026-04-05T07:35:25.967Z</time></trkpt><trkpt lat="45.6933246" lon="9.8528968"><ele>278.3333333333333</ele><time>2026-04-05T07:35:28.965Z</time></trkpt><trkpt lat="45.6932384" lon="9.8528465"><ele>282.0</ele><time>2026-04-05T07:35:32.027Z</time></trkpt><trkpt lat="45.6931553" lon="9.85281"><ele>282.0</ele><time>2026-04-05T07:35:34.964Z</time></trkpt><trkpt lat="45.6930739" lon="9.8527952"><ele>282.0</ele><time>2026-04-05T07:35:37.957Z</time></trkpt><trkpt lat="45.6930021" lon="9.8527725"><ele>282.0</ele><time>2026-04-05T07:35:40.96Z</time></trkpt><trkpt lat="45.6929384" lon="9.8527437"><ele>282.0</ele><time>2026-04-05T07:35:43.97Z</time></trkpt><trkpt lat="45.6928626" lon="9.8527177"><ele>282.0</ele><time>2026-04-05T07:35:46.963Z</time></trkpt><trkpt lat="45.6927757" lon="9.8526752"><ele>282.0</ele><time>2026-04-05T07:35:49.97Z</time></trkpt><trkpt lat="45.6927083" lon="9.8526679"><ele>283.0</ele><time>2026-04-05T07:35:51.964Z</time></trkpt><trkpt lat="45.6926263" lon="9.8526911"><ele>284.0</ele><time>2026-04-05T07:35:54.953Z</time></trkpt><trkpt lat="45.6925586" lon="9.8527085"><ele>285.0</ele><time>2026-04-05T07:35:57.958Z</time></trkpt><trkpt lat="45.692491" lon="9.852747"><ele>286.0</ele><time>2026-04-05T07:36:00.961Z</time></trkpt><trkpt lat="45.692434" lon="9.8528248"><ele>287.0</ele><time>2026-04-05T07:36:05.03Z</time></trkpt><trkpt lat="45.6923741" lon="9.852905"><ele>288.0</ele><time>2026-04-05T07:36:07.958Z</time></trkpt><trkpt lat="45.6923262" lon="9.8529815"><ele>288.0</ele><time>2026-04-05T07:36:10.964Z</time></trkpt><trkpt lat="45.6922749" lon="9.8530703"><ele>288.0</ele><time>2026-04-05T07:36:13.964Z</time></trkpt><trkpt lat="45.692219" lon="9.8531555"><ele>288.0</ele><time>2026-04-05T07:36:17.035Z</time></trkpt><trkpt lat="45.6921755" lon="9.8532288"><ele>288.0</ele><time>2026-04-05T07:36:19.969Z</time></trkpt><trkpt lat="45.6921292" lon="9.8533229"><ele>288.0</ele><time>2026-04-05T07:36:22.966Z</time></trkpt><trkpt lat="45.6920644" lon="9.8534117"><ele>288.0</ele><time>2026-04-05T07:36:25.967Z</time></trkpt><trkpt lat="45.6919886" lon="9.8535183"><ele>288.3333333333333</ele><time>2026-04-05T07:36:29.952Z</time></trkpt><trkpt lat="45.6919384" lon="9.8535981"><ele>288.6666666666667</ele><time>2026-04-05T07:36:32.955Z</time></trkpt><trkpt lat="45.6918776" lon="9.8536942"><ele>289.0</ele><time>2026-04-05T07:36:35.959Z</time></trkpt><trkpt lat="45.6918334" lon="9.8537592"><ele>289.33333333333337</ele><time>2026-04-05T07:36:37.959Z</time></trkpt><trkpt lat="45.691758" lon="9.8538276"><ele>289.6666666666667</ele><time>2026-04-05T07:36:40.965Z</time></trkpt><trkpt lat="45.6916894" lon="9.8538095"><ele>290.0</ele><time>2026-04-05T07:36:42.962Z</time></trkpt><trkpt lat="45.6916238" lon="9.8537858"><ele>290.0</ele><time>2026-04-05T07:36:43.956Z</time></trkpt><trkpt lat="45.6915492" lon="9.853779"><ele>290.0</ele><time>2026-04-05T07:36:44.954Z</time></trkpt><trkpt lat="45.6914857" lon="9.8537566"><ele>290.0</ele><time>2026-04-05T07:36:45.964Z</time></trkpt><trkpt lat="45.6914124" lon="9.8537318"><ele>290.0</ele><time>2026-04-05T07:36:47.03Z</time></trkpt><trkpt lat="45.691334" lon="9.8537046"><ele>290.0</ele><time>2026-04-05T07:36:48.024Z</time></trkpt><trkpt lat="45.6912475" lon="9.8536832"><ele>290.0</ele><time>2026-04-05T07:36:48.951Z</time></trkpt><trkpt lat="45.6911624" lon="9.8536701"><ele>288.33333333333337</ele><time>2026-04-05T07:36:49.95Z</time></trkpt><trkpt lat="45.6910754" lon="9.8536566"><ele>286.6666666666667</ele><time>2026-04-05T07:36:50.954Z</time></trkpt><trkpt lat="45.690987" lon="9.8536313"><ele>285.0</ele><time>2026-04-05T07:36:51.955Z</time></trkpt><trkpt lat="45.6909028" lon="9.8535971"><ele>283.3333333333333</ele><time>2026-04-05T07:36:52.952Z</time></trkpt><trkpt lat="45.690828" lon="9.8535668"><ele>281.66666666666663</ele><time>2026-04-05T07:36:53.955Z</time></trkpt><trkpt lat="45.690758" lon="9.8535482"><ele>280.0</ele><time>2026-04-05T07:36:54.955Z</time></trkpt><trkpt lat="45.6906942" lon="9.8535339"><ele>280.0</ele><time>2026-04-05T07:36:55.956Z</time></trkpt><trkpt lat="45.6905924" lon="9.8535029"><ele>280.0</ele><time>2026-04-05T07:36:58.05Z</time></trkpt><trkpt lat="45.6905286" lon="9.853492"><ele>280.0</ele><time>2026-04-05T07:36:59.958Z</time></trkpt><trkpt lat="45.6904746" lon="9.8535698"><ele>280.0</ele><time>2026-04-05T07:37:03.973Z</time></trkpt><trkpt lat="45.6904238" lon="9.8536764"><ele>280.0</ele><time>2026-04-05T07:37:06.951Z</time></trkpt><trkpt lat="45.6903901" lon="9.8537604"><ele>280.0</ele><time>2026-04-05T07:37:08.95Z</time></trkpt><trkpt lat="45.6903582" lon="9.853884"><ele>280.0</ele><time>2026-04-05T07:37:11.954Z</time></trkpt><trkpt lat="45.6903319" lon="9.854002"><ele>280.0</ele><time>2026-04-05T07:37:14.949Z</time></trkpt><trkpt lat="45.6902852" lon="9.8540972"><ele>280.0</ele><time>2026-04-05T07:37:16.959Z</time></trkpt><trkpt lat="45.6902373" lon="9.8542061"><ele>280.0</ele><time>2026-04-05T07:37:18.967Z</time></trkpt><trkpt lat="45.6901904" lon="9.8543073"><ele>280.0</ele><time>2026-04-05T07:37:20.955Z</time></trkpt><trkpt lat="45.6901462" lon="9.8544303"><ele>280.0</ele><time>2026-04-05T07:37:22.966Z</time></trkpt><trkpt lat="45.6901068" lon="9.854531"><ele>279.8333333333333</ele><time>2026-04-05T07:37:24.97Z</time></trkpt><trkpt lat="45.6900642" lon="9.8546247"><ele>279.66666666666663</ele><time>2026-04-05T07:37:26.959Z</time></trkpt><trkpt lat="45.6900184" lon="9.8547355"><ele>279.5</ele><time>2026-04-05T07:37:28.963Z</time></trkpt><trkpt lat="45.689971" lon="9.8548497"><ele>279.3333333333333</ele><time>2026-04-05T07:37:30.96Z</time></trkpt><trkpt lat="45.6899634" lon="9.8549641"><ele>279.1666666666667</ele><time>2026-04-05T07:37:32.957Z</time></trkpt><trkpt lat="45.6899567" lon="9.855111"><ele>279.0</ele><time>2026-04-05T07:37:34.956Z</time></trkpt><trkpt lat="45.6899355" lon="9.8552562"><ele>279.8333333333333</ele><time>2026-04-05T07:37:36.963Z</time></trkpt><trkpt lat="45.6898894" lon="9.8553759"><ele>280.6666666666667</ele><time>2026-04-05T07:37:38.955Z</time></trkpt><trkpt lat="45.689857" lon="9.8554972"><ele>281.5</ele><time>2026-04-05T07:37:40.956Z</time></trkpt><trkpt lat="45.6898135" lon="9.8556085"><ele>282.33333333333337</ele><time>2026-04-05T07:37:42.957Z</time></trkpt><trkpt lat="45.6897787" lon="9.8557178"><ele>283.1666666666667</ele><time>2026-04-05T07:37:44.961Z</time></trkpt><trkpt lat="45.6897612" lon="9.8558179"><ele>284.0</ele><time>2026-04-05T07:37:46.947Z</time></trkpt><trkpt lat="45.689737" lon="9.855919"><ele>285.1666666666667</ele><time>2026-04-05T07:37:48.956Z</time></trkpt><trkpt lat="45.6897069" lon="9.8560285"><ele>286.33333333333337</ele><time>2026-04-05T07:37:50.952Z</time></trkpt><trkpt lat="45.6896953" lon="9.8561281"><ele>287.5</ele><time>2026-04-05T07:37:52.962Z</time></trkpt><trkpt lat="45.6896822" lon="9.8562177"><ele>288.6666666666667</ele><time>2026-04-05T07:37:54.964Z</time></trkpt><trkpt lat="45.6896572" lon="9.8563147"><ele>289.8333333333333</ele><time>2026-04-05T07:37:56.949Z</time></trkpt><trkpt lat="45.6896226" lon="9.8564088"><ele>291.0</ele><time>2026-04-05T07:37:58.961Z</time></trkpt><trkpt lat="45.6895719" lon="9.8565293"><ele>291.0</ele><time>2026-04-05T07:38:00.95Z</time></trkpt><trkpt lat="45.6895413" lon="9.8566366"><ele>291.0</ele><time>2026-04-05T07:38:02.957Z</time></trkpt><trkpt lat="45.6894964" lon="9.8567323"><ele>291.0</ele><time>2026-04-05T07:38:04.953Z</time></trkpt><trkpt lat="45.6894521" lon="9.8568347"><ele>291.0</ele><time>2026-04-05T07:38:06.959Z</time></trkpt><trkpt lat="45.6894091" lon="9.8569113"><ele>291.0</ele><time>2026-04-05T07:38:08.954Z</time></trkpt><trkpt lat="45.6893622" lon="9.8569801"><ele>291.0</ele><time>2026-04-05T07:38:10.957Z</time></trkpt><trkpt lat="45.6893084" lon="9.8570564"><ele>290.5</ele><time>2026-04-05T07:38:12.956Z</time></trkpt><trkpt lat="45.6892428" lon="9.8571242"><ele>290.0</ele><time>2026-04-05T07:38:14.955Z</time></trkpt><trkpt lat="45.6891677" lon="9.8571775"><ele>289.5</ele><time>2026-04-05T07:38:16.954Z</time></trkpt><trkpt lat="45.6891007" lon="9.8572467"><ele>289.0</ele><time>2026-04-05T07:38:18.954Z</time></trkpt><trkpt lat="45.6890378" lon="9.8573014"><ele>288.5</ele><time>2026-04-05T07:38:20.96Z</time></trkpt><trkpt lat="45.6889606" lon="9.8573682"><ele>288.0</ele><time>2026-04-05T07:38:22.957Z</time></trkpt><trkpt lat="45.6889047" lon="9.8574887"><ele>288.8</ele><time>2026-04-05T07:38:24.946Z</time></trkpt><trkpt lat="45.6888835" lon="9.8576264"><ele>289.6</ele><time>2026-04-05T07:38:26.956Z</time></trkpt><trkpt lat="45.6888452" lon="9.8577285"><ele>290.4</ele><time>2026-04-05T07:38:28.954Z</time></trkpt><trkpt lat="45.6887682" lon="9.8578404"><ele>291.2</ele><time>2026-04-05T07:38:30.95Z</time></trkpt><trkpt lat="45.6886934" lon="9.8579683"><ele>292.0</ele><time>2026-04-05T07:38:32.96Z</time></trkpt><trkpt lat="45.6886157" lon="9.8580788"><ele>292.5</ele><time>2026-04-05T07:38:34.966Z</time></trkpt><trkpt lat="45.6885406" lon="9.8581754"><ele>293.0</ele><time>2026-04-05T07:38:36.959Z</time></trkpt><trkpt lat="45.6884774" lon="9.8582692"><ele>293.5</ele><time>2026-04-05T07:38:38.965Z</time></trkpt><trkpt lat="45.688423" lon="9.8583458"><ele>294.0</ele><time>2026-04-05T07:38:40.968Z</time></trkpt><trkpt lat="45.6883674" lon="9.8584123"><ele>294.5</ele><time>2026-04-05T07:38:42.957Z</time></trkpt><trkpt lat="45.688296" lon="9.8585097"><ele>295.0</ele><time>2026-04-05T07:38:44.952Z</time></trkpt><trkpt lat="45.6881841" lon="9.8585964"><ele>295.0</ele><time>2026-04-05T07:38:46.959Z</time></trkpt><trkpt lat="45.6880761" lon="9.8586802"><ele>295.0</ele><time>2026-04-05T07:38:48.957Z</time></trkpt><trkpt lat="45.6879732" lon="9.8587503"><ele>295.0</ele><time>2026-04-05T07:38:50.963Z</time></trkpt><trkpt lat="45.6879142" lon="9.8587889"><ele>295.0</ele><time>2026-04-05T07:38:51.953Z</time></trkpt><trkpt lat="45.6878664" lon="9.8589035"><ele>295.0</ele><time>2026-04-05T07:38:53.957Z</time></trkpt><trkpt lat="45.6877914" lon="9.8590125"><ele>293.0</ele><time>2026-04-05T07:38:55.949Z</time></trkpt><trkpt lat="45.6877191" lon="9.8591015"><ele>291.0</ele><time>2026-04-05T07:38:57.956Z</time></trkpt><trkpt lat="45.6876607" lon="9.8592059"><ele>289.0</ele><time>2026-04-05T07:38:59.955Z</time></trkpt><trkpt lat="45.6876158" lon="9.8593155"><ele>287.0</ele><time>2026-04-05T07:39:01.962Z</time></trkpt><trkpt lat="45.6875694" lon="9.8594608"><ele>285.0</ele><time>2026-04-05T07:39:03.956Z</time></trkpt><trkpt lat="45.6875197" lon="9.8596037"><ele>285.0</ele><time>2026-04-05T07:39:05.956Z</time></trkpt><trkpt lat="45.6874806" lon="9.8597136"><ele>285.0</ele><time>2026-04-05T07:39:07.958Z</time></trkpt><trkpt lat="45.6874432" lon="9.8598246"><ele>285.0</ele><time>2026-04-05T07:39:09.956Z</time></trkpt><trkpt lat="45.6874291" lon="9.8599604"><ele>285.0</ele><time>2026-04-05T07:39:11.958Z</time></trkpt><trkpt lat="45.6874057" lon="9.8600995"><ele>285.0</ele><time>2026-04-05T07:39:13.955Z</time></trkpt><trkpt lat="45.6873901" lon="9.8602263"><ele>285.8</ele><time>2026-04-05T07:39:15.956Z</time></trkpt><trkpt lat="45.6873799" lon="9.8603616"><ele>286.6</ele><time>2026-04-05T07:39:17.962Z</time></trkpt><trkpt lat="45.687379" lon="9.860499"><ele>287.4</ele><time>2026-04-05T07:39:19.956Z</time></trkpt><trkpt lat="45.6873752" lon="9.8606317"><ele>288.2</ele><time>2026-04-05T07:39:21.95Z</time></trkpt><trkpt lat="45.6873773" lon="9.8607562"><ele>289.0</ele><time>2026-04-05T07:39:23.957Z</time></trkpt><trkpt lat="45.6873733" lon="9.8608939"><ele>289.4</ele><time>2026-04-05T07:39:25.955Z</time></trkpt><trkpt lat="45.6873771" lon="9.861024"><ele>289.79999999999995</ele><time>2026-04-05T07:39:27.957Z</time></trkpt><trkpt lat="45.6873656" lon="9.8611572"><ele>290.20000000000005</ele><time>2026-04-05T07:39:29.963Z</time></trkpt><trkpt lat="45.6873282" lon="9.8612972"><ele>290.6</ele><time>2026-04-05T07:39:31.96Z</time></trkpt><trkpt lat="45.6872876" lon="9.8614347"><ele>291.0</ele><time>2026-04-05T07:39:34.032Z</time></trkpt><trkpt lat="45.6872417" lon="9.861562"><ele>291.0</ele><time>2026-04-05T07:39:35.961Z</time></trkpt><trkpt lat="45.6872108" lon="9.8616887"><ele>291.0</ele><time>2026-04-05T07:39:37.987Z</time></trkpt><trkpt lat="45.6871878" lon="9.8618007"><ele>291.0</ele><time>2026-04-05T07:39:39.947Z</time></trkpt><trkpt lat="45.6871986" lon="9.8619198"><ele>291.0</ele><time>2026-04-05T07:39:41.954Z</time></trkpt><trkpt lat="45.6872238" lon="9.8620447"><ele>291.0</ele><time>2026-04-05T07:39:43.977Z</time></trkpt><trkpt lat="45.6872552" lon="9.8621704"><ele>291.0</ele><time>2026-04-05T07:39:45.953Z</time></trkpt><trkpt lat="45.6872893" lon="9.8622795"><ele>290.6</ele><time>2026-04-05T07:39:47.955Z</time></trkpt><trkpt lat="45.6873217" lon="9.862382"><ele>290.20000000000005</ele><time>2026-04-05T07:39:50.034Z</time></trkpt><trkpt lat="45.6873569" lon="9.8625062"><ele>289.79999999999995</ele><time>2026-04-05T07:39:51.958Z</time></trkpt><trkpt lat="45.6873926" lon="9.8626338"><ele>289.4</ele><time>2026-04-05T07:39:53.944Z</time></trkpt><trkpt lat="45.6874203" lon="9.8627581"><ele>289.0</ele><time>2026-04-05T07:39:55.951Z</time></trkpt><trkpt lat="45.687457" lon="9.8628776"><ele>288.0</ele><time>2026-04-05T07:39:57.959Z</time></trkpt><trkpt lat="45.6874872" lon="9.863006"><ele>287.0</ele><time>2026-04-05T07:39:59.953Z</time></trkpt><trkpt lat="45.6875084" lon="9.8631365"><ele>286.0</ele><time>2026-04-05T07:40:01.968Z</time></trkpt><trkpt lat="45.687524" lon="9.8632582"><ele>285.0</ele><time>2026-04-05T07:40:03.951Z</time></trkpt><trkpt lat="45.6875426" lon="9.8633944"><ele>284.0</ele><time>2026-04-05T07:40:05.947Z</time></trkpt><trkpt lat="45.6875622" lon="9.8635134"><ele>284.0</ele><time>2026-04-05T07:40:08.022Z</time></trkpt><trkpt lat="45.6875799" lon="9.8636365"><ele>284.0</ele><time>2026-04-05T07:40:09.957Z</time></trkpt><trkpt lat="45.6875975" lon="9.8637677"><ele>284.0</ele><time>2026-04-05T07:40:11.954Z</time></trkpt><trkpt lat="45.6876171" lon="9.8638999"><ele>284.0</ele><time>2026-04-05T07:40:13.949Z</time></trkpt><trkpt lat="45.6876363" lon="9.8640176"><ele>284.0</ele><time>2026-04-05T07:40:15.942Z</time></trkpt><trkpt lat="45.6876819" lon="9.864121"><ele>284.0</ele><time>2026-04-05T07:40:17.954Z</time></trkpt><trkpt lat="45.6877482" lon="9.8641924"><ele>286.0</ele><time>2026-04-05T07:40:20.026Z</time></trkpt><trkpt lat="45.6878199" lon="9.8642702"><ele>288.0</ele><time>2026-04-05T07:40:21.961Z</time></trkpt><trkpt lat="45.6878939" lon="9.8643565"><ele>290.0</ele><time>2026-04-05T07:40:23.958Z</time></trkpt><trkpt lat="45.687959" lon="9.8644425"><ele>292.0</ele><time>2026-04-05T07:40:25.949Z</time></trkpt><trkpt lat="45.6880234" lon="9.8645295"><ele>294.0</ele><time>2026-04-05T07:40:27.954Z</time></trkpt><trkpt lat="45.6880941" lon="9.8646088"><ele>294.0</ele><time>2026-04-05T07:40:29.953Z</time></trkpt><trkpt lat="45.6881575" lon="9.8646916"><ele>294.0</ele><time>2026-04-05T07:40:31.984Z</time></trkpt><trkpt lat="45.6882076" lon="9.8647926"><ele>294.0</ele><time>2026-04-05T07:40:33.959Z</time></trkpt><trkpt lat="45.6882284" lon="9.8649182"><ele>294.0</ele><time>2026-04-05T07:40:35.941Z</time></trkpt><trkpt lat="45.6882409" lon="9.865026"><ele>294.0</ele><time>2026-04-05T07:40:37.954Z</time></trkpt><trkpt lat="45.6882624" lon="9.8651244"><ele>294.0</ele><time>2026-04-05T07:40:39.956Z</time></trkpt><trkpt lat="45.6882808" lon="9.8652342"><ele>294.2857142857143</ele><time>2026-04-05T07:40:41.96Z</time></trkpt><trkpt lat="45.6883034" lon="9.8653285"><ele>294.57142857142856</ele><time>2026-04-05T07:40:44.033Z</time></trkpt><trkpt lat="45.6883314" lon="9.8654155"><ele>294.8571428571429</ele><time>2026-04-05T07:40:45.963Z</time></trkpt><trkpt lat="45.6883689" lon="9.8655067"><ele>295.1428571428571</ele><time>2026-04-05T07:40:47.967Z</time></trkpt><trkpt lat="45.6884083" lon="9.8656035"><ele>295.42857142857144</ele><time>2026-04-05T07:40:50.976Z</time></trkpt><trkpt lat="45.6884778" lon="9.8656657"><ele>295.7142857142857</ele><time>2026-04-05T07:40:53.952Z</time></trkpt><trkpt lat="45.6885412" lon="9.8657082"><ele>296.0</ele><time>2026-04-05T07:40:55.958Z</time></trkpt><trkpt lat="45.6885992" lon="9.8657583"><ele>298.1666666666667</ele><time>2026-04-05T07:40:57.961Z</time></trkpt><trkpt lat="45.6886821" lon="9.8658272"><ele>300.33333333333337</ele><time>2026-04-05T07:41:00.956Z</time></trkpt><trkpt lat="45.6887536" lon="9.8658712"><ele>302.5</ele><time>2026-04-05T07:41:04.029Z</time></trkpt><trkpt lat="45.6888224" lon="9.8659467"><ele>304.6666666666667</ele><time>2026-04-05T07:41:06.969Z</time></trkpt><trkpt lat="45.6888709" lon="9.8660062"><ele>306.8333333333333</ele><time>2026-04-05T07:41:08.96Z</time></trkpt><trkpt lat="45.6889247" lon="9.8660683"><ele>309.0</ele><time>2026-04-05T07:41:10.96Z</time></trkpt><trkpt lat="45.6889674" lon="9.8661381"><ele>309.00000000000006</ele><time>2026-04-05T07:41:13.03Z</time></trkpt><trkpt lat="45.6890074" lon="9.8662545"><ele>309.0</ele><time>2026-04-05T07:41:15.96Z</time></trkpt><trkpt lat="45.689026" lon="9.8663498"><ele>309.0</ele><time>2026-04-05T07:41:17.957Z</time></trkpt><trkpt lat="45.6890302" lon="9.8664569"><ele>309.0</ele><time>2026-04-05T07:41:19.959Z</time></trkpt><trkpt lat="45.6890235" lon="9.8665566"><ele>309.0</ele><time>2026-04-05T07:41:21.954Z</time></trkpt><trkpt lat="45.6890117" lon="9.8666505"><ele>309.00000000000006</ele><time>2026-04-05T07:41:24.018Z</time></trkpt><trkpt lat="45.6890109" lon="9.8667434"><ele>309.0</ele><time>2026-04-05T07:41:25.952Z</time></trkpt><trkpt lat="45.6890154" lon="9.8668582"><ele>309.0</ele><time>2026-04-05T07:41:28.949Z</time></trkpt><trkpt lat="45.68909" lon="9.866873"><ele>309.0</ele><time>2026-04-05T07:41:32.965Z</time></trkpt><trkpt lat="45.6891547" lon="9.8667893"><ele>309.0</ele><time>2026-04-05T07:41:35.948Z</time></trkpt><trkpt lat="45.6892048" lon="9.8666857"><ele>309.0</ele><time>2026-04-05T07:41:38.95Z</time></trkpt><trkpt lat="45.689231" lon="9.8666001"><ele>309.0</ele><time>2026-04-05T07:41:40.95Z</time></trkpt><trkpt lat="45.6892568" lon="9.8665118"><ele>309.0</ele><time>2026-04-05T07:41:42.951Z</time></trkpt><trkpt lat="45.6892708" lon="9.8663865"><ele>309.00000000000006</ele><time>2026-04-05T07:41:45.956Z</time></trkpt><trkpt lat="45.6892804" lon="9.8662661"><ele>309.0</ele><time>2026-04-05T07:41:48.94Z</time></trkpt><trkpt lat="45.6892846" lon="9.8661706"><ele>309.0</ele><time>2026-04-05T07:41:50.941Z</time></trkpt><trkpt lat="45.689279" lon="9.8660746"><ele>309.0</ele><time>2026-04-05T07:41:52.956Z</time></trkpt><trkpt lat="45.6892721" lon="9.8659799"><ele>309.0</ele><time>2026-04-05T07:41:54.951Z</time></trkpt><trkpt lat="45.689259" lon="9.8658858"><ele>309.00000000000006</ele><time>2026-04-05T07:41:56.947Z</time></trkpt><trkpt lat="45.6892662" lon="9.8657826"><ele>309.0</ele><time>2026-04-05T07:41:59.944Z</time></trkpt><trkpt lat="45.6893278" lon="9.8658196"><ele>309.00000000000006</ele><time>2026-04-05T07:42:04.951Z</time></trkpt><trkpt lat="45.6893464" lon="9.8659367"><ele>309.0</ele><time>2026-04-05T07:42:07.952Z</time></trkpt><trkpt lat="45.6893562" lon="9.8660644"><ele>309.0</ele><time>2026-04-05T07:42:10.96Z</time></trkpt><trkpt lat="45.689373" lon="9.8661555"><ele>309.0</ele><time>2026-04-05T07:42:12.949Z</time></trkpt><trkpt lat="45.6893899" lon="9.8662504"><ele>309.0</ele><time>2026-04-05T07:42:14.944Z</time></trkpt><trkpt lat="45.6894105" lon="9.8663365"><ele>309.00000000000006</ele><time>2026-04-05T07:42:16.947Z</time></trkpt><trkpt lat="45.6894253" lon="9.8664296"><ele>309.0</ele><time>2026-04-05T07:42:18.948Z</time></trkpt><trkpt lat="45.6894537" lon="9.8665476"><ele>314.5</ele><time>2026-04-05T07:42:21.956Z</time></trkpt><trkpt lat="45.6894536" lon="9.8664247"><ele>320.0</ele><time>2026-04-05T07:42:29.951Z</time></trkpt><trkpt lat="45.689448" lon="9.866301"><ele>325.5</ele><time>2026-04-05T07:42:32.958Z</time></trkpt><trkpt lat="45.6894539" lon="9.8661945"><ele>331.0</ele><time>2026-04-05T07:42:35.945Z</time></trkpt><trkpt lat="45.6894703" lon="9.8660547"><ele>336.5</ele><time>2026-04-05T07:42:39.95Z</time></trkpt><trkpt lat="45.6894792" lon="9.8659653"><ele>342.0</ele><time>2026-04-05T07:42:41.944Z</time></trkpt><trkpt lat="45.6894953" lon="9.865833"><ele>342.0</ele><time>2026-04-05T07:42:44.957Z</time></trkpt><trkpt lat="45.6895623" lon="9.8658052"><ele>342.0</ele><time>2026-04-05T07:42:48.962Z</time></trkpt><trkpt lat="45.6895416" lon="9.8658944"><ele>342.0</ele><time>2026-04-05T07:42:51.956Z</time></trkpt><trkpt lat="45.6895454" lon="9.86601"><ele>342.0</ele><time>2026-04-05T07:42:55.944Z</time></trkpt><trkpt lat="45.6895502" lon="9.8661133"><ele>342.0</ele><time>2026-04-05T07:42:58.95Z</time></trkpt><trkpt lat="45.6895678" lon="9.8662348"><ele>342.0</ele><time>2026-04-05T07:43:02.046Z</time></trkpt><trkpt lat="45.6896044" lon="9.8663443"><ele>342.3333333333333</ele><time>2026-04-05T07:43:05.036Z</time></trkpt><trkpt lat="45.6896339" lon="9.8664578"><ele>342.6666666666667</ele><time>2026-04-05T07:43:07.961Z</time></trkpt><trkpt lat="45.6896623" lon="9.8665535"><ele>343.0</ele><time>2026-04-05T07:43:09.958Z</time></trkpt><trkpt lat="45.6897002" lon="9.8666517"><ele>343.33333333333337</ele><time>2026-04-05T07:43:11.963Z</time></trkpt><trkpt lat="45.6897311" lon="9.8667408"><ele>343.6666666666667</ele><time>2026-04-05T07:43:13.981Z</time></trkpt><trkpt lat="45.6897513" lon="9.8668315"><ele>344.0</ele><time>2026-04-05T07:43:15.954Z</time></trkpt><trkpt lat="45.6897784" lon="9.8669433"><ele>344.0</ele><time>2026-04-05T07:43:18.952Z</time></trkpt><trkpt lat="45.6898015" lon="9.8668535"><ele>344.0</ele><time>2026-04-05T07:43:28.035Z</time></trkpt><trkpt lat="45.6897792" lon="9.8667344"><ele>344.0</ele><time>2026-04-05T07:43:30.952Z</time></trkpt><trkpt lat="45.6897544" lon="9.8666216"><ele>344.0</ele><time>2026-04-05T07:43:33.976Z</time></trkpt><trkpt lat="45.6897414" lon="9.8665056"><ele>344.0</ele><time>2026-04-05T07:43:36.957Z</time></trkpt><trkpt lat="45.6897265" lon="9.8664037"><ele>344.0</ele><time>2026-04-05T07:43:40.029Z</time></trkpt><trkpt lat="45.6897331" lon="9.8663114"><ele>344.33333333333337</ele><time>2026-04-05T07:43:42.956Z</time></trkpt><trkpt lat="45.6897362" lon="9.8662107"><ele>344.6666666666667</ele><time>2026-04-05T07:43:45.954Z</time></trkpt><trkpt lat="45.6897644" lon="9.8661034"><ele>345.0</ele><time>2026-04-05T07:43:48.949Z</time></trkpt><trkpt lat="45.6898009" lon="9.8660245"><ele>345.3333333333333</ele><time>2026-04-05T07:43:50.947Z</time></trkpt><trkpt lat="45.6898589" lon="9.8659314"><ele>345.66666666666663</ele><time>2026-04-05T07:43:53.953Z</time></trkpt><trkpt lat="45.6899256" lon="9.8658687"><ele>346.0</ele><time>2026-04-05T07:43:56.952Z</time></trkpt><trkpt lat="45.6899849" lon="9.8657968"><ele>346.0</ele><time>2026-04-05T07:43:59.949Z</time></trkpt><trkpt lat="45.6900454" lon="9.8657676"><ele>346.0</ele><time>2026-04-05T07:44:02.95Z</time></trkpt><trkpt lat="45.6899989" lon="9.8658597"><ele>346.0</ele><time>2026-04-05T07:44:07.967Z</time></trkpt><trkpt lat="45.6899507" lon="9.8659451"><ele>346.0</ele><time>2026-04-05T07:44:11.964Z</time></trkpt><trkpt lat="45.6899192" lon="9.8660369"><ele>346.0</ele><time>2026-04-05T07:44:14.976Z</time></trkpt><trkpt lat="45.6899169" lon="9.8661581"><ele>346.0</ele><time>2026-04-05T07:44:18.967Z</time></trkpt><trkpt lat="45.6899406" lon="9.8662765"><ele>346.0</ele><time>2026-04-05T07:44:21.957Z</time></trkpt><trkpt lat="45.6899724" lon="9.866394"><ele>346.0</ele><time>2026-04-05T07:44:24.955Z</time></trkpt><trkpt lat="45.6900118" lon="9.8664714"><ele>346.0</ele><time>2026-04-05T07:44:28.033Z</time></trkpt><trkpt lat="45.6900538" lon="9.8665598"><ele>346.0</ele><time>2026-04-05T07:44:30.955Z</time></trkpt><trkpt lat="45.6900921" lon="9.8666594"><ele>346.0</ele><time>2026-04-05T07:44:34.021Z</time></trkpt><trkpt lat="45.6901328" lon="9.8667301"><ele>346.0</ele><time>2026-04-05T07:44:35.971Z</time></trkpt><trkpt lat="45.6901882" lon="9.8668343"><ele>345.7142857142857</ele><time>2026-04-05T07:44:39.032Z</time></trkpt><trkpt lat="45.6902291" lon="9.8669044"><ele>345.42857142857144</ele><time>2026-04-05T07:44:40.954Z</time></trkpt><trkpt lat="45.6902782" lon="9.8669798"><ele>345.14285714285717</ele><time>2026-04-05T07:44:44.036Z</time></trkpt><trkpt lat="45.6903228" lon="9.8670657"><ele>344.8571428571429</ele><time>2026-04-05T07:44:46.957Z</time></trkpt><trkpt lat="45.6903523" lon="9.8671895"><ele>344.57142857142856</ele><time>2026-04-05T07:44:49.954Z</time></trkpt><trkpt lat="45.6903762" lon="9.8672816"><ele>344.28571428571433</ele><time>2026-04-05T07:44:51.956Z</time></trkpt><trkpt lat="45.6903957" lon="9.8673819"><ele>344.0</ele><time>2026-04-05T07:44:53.953Z</time></trkpt><trkpt lat="45.690408" lon="9.8674949"><ele>350.00000000000006</ele><time>2026-04-05T07:44:55.946Z</time></trkpt><trkpt lat="45.6904168" lon="9.8675974"><ele>356.0</ele><time>2026-04-05T07:44:57.958Z</time></trkpt><trkpt lat="45.6904193" lon="9.8676955"><ele>362.0</ele><time>2026-04-05T07:44:59.949Z</time></trkpt><trkpt lat="45.6904378" lon="9.8678053"><ele>368.0</ele><time>2026-04-05T07:45:01.956Z</time></trkpt><trkpt lat="45.6904685" lon="9.8678941"><ele>374.0</ele><time>2026-04-05T07:45:04.962Z</time></trkpt><trkpt lat="45.6904959" lon="9.8678072"><ele>380.00000000000006</ele><time>2026-04-05T07:45:14.959Z</time></trkpt><trkpt lat="45.690497" lon="9.8676902"><ele>386.0</ele><time>2026-04-05T07:45:18.957Z</time></trkpt><trkpt lat="45.6904956" lon="9.8675958"><ele>386.16666666666663</ele><time>2026-04-05T07:45:21.958Z</time></trkpt><trkpt lat="45.6904943" lon="9.8674915"><ele>386.3333333333333</ele><time>2026-04-05T07:45:24.961Z</time></trkpt><trkpt lat="45.6904886" lon="9.8673787"><ele>386.5</ele><time>2026-04-05T07:45:27.957Z</time></trkpt><trkpt lat="45.6904622" lon="9.8672469"><ele>386.66666666666663</ele><time>2026-04-05T07:45:30.956Z</time></trkpt><trkpt lat="45.6904375" lon="9.867119"><ele>386.8333333333333</ele><time>2026-04-05T07:45:33.95Z</time></trkpt><trkpt lat="45.6904169" lon="9.8670228"><ele>387.0</ele><time>2026-04-05T07:45:35.947Z</time></trkpt><trkpt lat="45.690402" lon="9.866929"><ele>387.0</ele><time>2026-04-05T07:45:37.961Z</time></trkpt><trkpt lat="45.6903891" lon="9.866838"><ele>387.0</ele><time>2026-04-05T07:45:39.957Z</time></trkpt><trkpt lat="45.6903798" lon="9.8667366"><ele>387.0</ele><time>2026-04-05T07:45:43.962Z</time></trkpt><trkpt lat="45.690405" lon="9.8666191"><ele>387.0</ele><time>2026-04-05T07:45:47.949Z</time></trkpt><trkpt lat="45.6904266" lon="9.8665284"><ele>387.0</ele><time>2026-04-05T07:45:50.954Z</time></trkpt><trkpt lat="45.6904532" lon="9.8664428"><ele>387.0</ele><time>2026-04-05T07:45:53.96Z</time></trkpt><trkpt lat="45.6904831" lon="9.8663618"><ele>387.0</ele><time>2026-04-05T07:45:56.96Z</time></trkpt><trkpt lat="45.6904429" lon="9.866457"><ele>387.0</ele><time>2026-04-05T07:46:05.036Z</time></trkpt><trkpt lat="45.6904294" lon="9.8665494"><ele>387.0</ele><time>2026-04-05T07:46:09.964Z</time></trkpt><trkpt lat="45.6904683" lon="9.8666291"><ele>387.0</ele><time>2026-04-05T07:46:14.969Z</time></trkpt><trkpt lat="45.6904995" lon="9.8667223"><ele>387.0</ele><time>2026-04-05T07:46:19.959Z</time></trkpt><trkpt lat="45.6905341" lon="9.8668282"><ele>387.0</ele><time>2026-04-05T07:46:23.951Z</time></trkpt><trkpt lat="45.6905797" lon="9.8669343"><ele>387.0</ele><time>2026-04-05T07:46:25.963Z</time></trkpt><trkpt lat="45.6906245" lon="9.8670465"><ele>387.0</ele><time>2026-04-05T07:46:28.95Z</time></trkpt><trkpt lat="45.6906545" lon="9.8671379"><ele>387.0</ele><time>2026-04-05T07:46:31.946Z</time></trkpt><trkpt lat="45.6906939" lon="9.8672202"><ele>387.0</ele><time>2026-04-05T07:46:34.942Z</time></trkpt><trkpt lat="45.6907247" lon="9.8673176"><ele>387.0</ele><time>2026-04-05T07:46:37.954Z</time></trkpt><trkpt lat="45.6907502" lon="9.8674317"><ele>387.0</ele><time>2026-04-05T07:46:40.96Z</time></trkpt><trkpt lat="45.6907687" lon="9.8675358"><ele>387.0</ele><time>2026-04-05T07:46:42.939Z</time></trkpt><trkpt lat="45.6907861" lon="9.8676267"><ele>387.0</ele><time>2026-04-05T07:46:44.99Z</time></trkpt><trkpt lat="45.6908072" lon="9.8677374"><ele>386.8333333333333</ele><time>2026-04-05T07:46:47.953Z</time></trkpt><trkpt lat="45.6908296" lon="9.8678643"><ele>386.66666666666663</ele><time>2026-04-05T07:46:50.95Z</time></trkpt><trkpt lat="45.6908561" lon="9.8679667"><ele>386.5</ele><time>2026-04-05T07:46:52.945Z</time></trkpt><trkpt lat="45.6908769" lon="9.8680701"><ele>386.3333333333333</ele><time>2026-04-05T07:46:54.948Z</time></trkpt><trkpt lat="45.6908929" lon="9.8682019"><ele>386.16666666666663</ele><time>2026-04-05T07:46:58.021Z</time></trkpt><trkpt lat="45.6909016" lon="9.8682953"><ele>386.0</ele><time>2026-04-05T07:46:59.952Z</time></trkpt><trkpt lat="45.6908983" lon="9.8683915"><ele>384.99999999999994</ele><time>2026-04-05T07:47:01.94Z</time></trkpt><trkpt lat="45.6909208" lon="9.868564"><ele>384.0</ele><time>2026-04-05T07:47:05.944Z</time></trkpt><trkpt lat="45.6909308" lon="9.8686557"><ele>383.0</ele><time>2026-04-05T07:47:07.954Z</time></trkpt><trkpt lat="45.6909494" lon="9.8687468"><ele>382.0</ele><time>2026-04-05T07:47:10.029Z</time></trkpt><trkpt lat="45.690967" lon="9.8688396"><ele>381.0</ele><time>2026-04-05T07:47:11.955Z</time></trkpt><trkpt lat="45.6909777" lon="9.8689411"><ele>380.0</ele><time>2026-04-05T07:47:13.949Z</time></trkpt><trkpt lat="45.6909887" lon="9.8690341"><ele>380.0</ele><time>2026-04-05T07:47:15.999Z</time></trkpt><trkpt lat="45.6909986" lon="9.8691382"><ele>380.0</ele><time>2026-04-05T07:47:17.956Z</time></trkpt><trkpt lat="45.6910113" lon="9.8692359"><ele>380.0</ele><time>2026-04-05T07:47:19.958Z</time></trkpt><trkpt lat="45.6910279" lon="9.8693347"><ele>380.0</ele><time>2026-04-05T07:47:21.94Z</time></trkpt><trkpt lat="45.6910616" lon="9.8694128"><ele>380.0</ele><time>2026-04-05T07:47:24.943Z</time></trkpt><trkpt lat="45.6910345" lon="9.8693001"><ele>380.0</ele><time>2026-04-05T07:47:32.954Z</time></trkpt><trkpt lat="45.6910354" lon="9.869197"><ele>380.0</ele><time>2026-04-05T07:47:35.951Z</time></trkpt><trkpt lat="45.6910459" lon="9.8690943"><ele>380.0</ele><time>2026-04-05T07:47:38.954Z</time></trkpt><trkpt lat="45.691066" lon="9.8689815"><ele>380.0</ele><time>2026-04-05T07:47:41.948Z</time></trkpt><trkpt lat="45.6910752" lon="9.8688541"><ele>380.0</ele><time>2026-04-05T07:47:44.956Z</time></trkpt><trkpt lat="45.6910702" lon="9.868722"><ele>380.0</ele><time>2026-04-05T07:47:47.945Z</time></trkpt><trkpt lat="45.6910708" lon="9.8686217"><ele>380.0</ele><time>2026-04-05T07:47:49.95Z</time></trkpt><trkpt lat="45.6910824" lon="9.8685219"><ele>380.0</ele><time>2026-04-05T07:47:51.953Z</time></trkpt><trkpt lat="45.6910943" lon="9.8683952"><ele>381.0</ele><time>2026-04-05T07:47:54.946Z</time></trkpt><trkpt lat="45.6910875" lon="9.8682957"><ele>382.0</ele><time>2026-04-05T07:47:56.95Z</time></trkpt><trkpt lat="45.6910799" lon="9.8681583"><ele>383.0</ele><time>2026-04-05T07:47:59.951Z</time></trkpt><trkpt lat="45.6910902" lon="9.8680321"><ele>384.0</ele><time>2026-04-05T07:48:02.961Z</time></trkpt><trkpt lat="45.6910816" lon="9.867925"><ele>384.99999999999994</ele><time>2026-04-05T07:48:04.949Z</time></trkpt><trkpt lat="45.6910732" lon="9.8678009"><ele>386.0</ele><time>2026-04-05T07:48:07.953Z</time></trkpt><trkpt lat="45.6910823" lon="9.8676896"><ele>386.16666666666663</ele><time>2026-04-05T07:48:10.953Z</time></trkpt><trkpt lat="45.6910909" lon="9.8675773"><ele>386.3333333333333</ele><time>2026-04-05T07:48:13.947Z</time></trkpt><trkpt lat="45.691087" lon="9.8674389"><ele>386.5</ele><time>2026-04-05T07:48:16.945Z</time></trkpt><trkpt lat="45.6910874" lon="9.8673317"><ele>386.66666666666663</ele><time>2026-04-05T07:48:18.95Z</time></trkpt><trkpt lat="45.6910925" lon="9.8671985"><ele>386.8333333333333</ele><time>2026-04-05T07:48:21.945Z</time></trkpt><trkpt lat="45.691094" lon="9.8670656"><ele>387.0</ele><time>2026-04-05T07:48:24.948Z</time></trkpt><trkpt lat="45.6911083" lon="9.8669379"><ele>392.0</ele><time>2026-04-05T07:48:27.948Z</time></trkpt><trkpt lat="45.6911507" lon="9.8668549"><ele>397.0</ele><time>2026-04-05T07:48:30.952Z</time></trkpt><trkpt lat="45.691204" lon="9.8667997"><ele>402.0</ele><time>2026-04-05T07:48:34.941Z</time></trkpt><trkpt lat="45.6912879" lon="9.8667856"><ele>407.0</ele><time>2026-04-05T07:48:38.953Z</time></trkpt><trkpt lat="45.6913539" lon="9.8667799"><ele>412.0</ele><time>2026-04-05T07:48:41.956Z</time></trkpt><trkpt lat="45.691432" lon="9.8667733"><ele>417.0</ele><time>2026-04-05T07:48:44.955Z</time></trkpt><trkpt lat="45.6915135" lon="9.8667213"><ele>417.0</ele><time>2026-04-05T07:48:47.953Z</time></trkpt><trkpt lat="45.6915748" lon="9.8666525"><ele>417.0</ele><time>2026-04-05T07:48:49.951Z</time></trkpt><trkpt lat="45.6916383" lon="9.8666032"><ele>417.0</ele><time>2026-04-05T07:48:51.943Z</time></trkpt><trkpt lat="45.6917223" lon="9.866552"><ele>417.0</ele><time>2026-04-05T07:48:54.945Z</time></trkpt><trkpt lat="45.6917896" lon="9.8665342"><ele>417.0</ele><time>2026-04-05T07:48:57.959Z</time></trkpt><trkpt lat="45.6918549" lon="9.8664857"><ele>417.0</ele><time>2026-04-05T07:48:59.955Z</time></trkpt><trkpt lat="45.6919303" lon="9.866407"><ele>419.8333333333333</ele><time>2026-04-05T07:49:02.952Z</time></trkpt><trkpt lat="45.6919998" lon="9.866344"><ele>422.66666666666663</ele><time>2026-04-05T07:49:05.952Z</time></trkpt><trkpt lat="45.692071" lon="9.8663039"><ele>425.5</ele><time>2026-04-05T07:49:08.958Z</time></trkpt><trkpt lat="45.6921263" lon="9.8662455"><ele>428.3333333333333</ele><time>2026-04-05T07:49:11.955Z</time></trkpt><trkpt lat="45.6922175" lon="9.8661142"><ele>431.16666666666663</ele><time>2026-04-05T07:49:17.949Z</time></trkpt><trkpt lat="45.6922825" lon="9.8660774"><ele>434.0</ele><time>2026-04-05T07:49:20.954Z</time></trkpt><trkpt lat="45.6923503" lon="9.8660431"><ele>433.99999999999994</ele><time>2026-04-05T07:49:23.956Z</time></trkpt><trkpt lat="45.6924153" lon="9.8660488"><ele>434.0</ele><time>2026-04-05T07:49:26.952Z</time></trkpt><trkpt lat="45.6924855" lon="9.8660302"><ele>434.0</ele><time>2026-04-05T07:49:30.952Z</time></trkpt><trkpt lat="45.6925386" lon="9.8659509"><ele>434.0</ele><time>2026-04-05T07:49:33.958Z</time></trkpt><trkpt lat="45.6925957" lon="9.8659082"><ele>433.99999999999994</ele><time>2026-04-05T07:49:38.958Z</time></trkpt><trkpt lat="45.6926946" lon="9.8658633"><ele>434.0</ele><time>2026-04-05T07:49:42.949Z</time></trkpt><trkpt lat="45.6927688" lon="9.8658967"><ele>418.0</ele><time>2026-04-05T07:51:05.964Z</time></trkpt></trkseg></trk></gpx>